<?xml version="1.0" encoding="UTF-8" standalone="no" ?>
<gpx xmlns="http://www.topografix.com/GPX/1/1" xmlns:xsi="http://www.w3.org/2001/XMLSchema-instance" xsi:schemaLocation="http://www.topografix.com/GPX/1/1 http://www.topografix.com/GPX/1/1/gpx.xsd" version="1.1" creator="VisuGPX - https://www.visugpx.com">
  <metadata>
    <name>Lac KIR - TALANT - PLOMBIERES (variante)</name>
    <desc><![CDATA[Randonnée de Dijon aux hauteurs de Talant pour admirer les paysages qui bordent le Lac Kir.]]></desc>
  </metadata>
  <trk>
    <name><![CDATA[2015-12-08-01]]></name>
    <trkseg>
      <trkpt lat="47.32602" lon="5.00717">
        <ele>264.2</ele>
        <time>2015-12-08T13:05:31Z</time>
      </trkpt>
      <trkpt lat="47.32602" lon="5.00717">
        <ele>264.3</ele>
        <time>2015-12-08T13:05:32Z</time>
      </trkpt>
      <trkpt lat="47.32573" lon="5.0074">
        <ele>262.5</ele>
        <time>2015-12-08T13:05:33Z</time>
      </trkpt>
      <trkpt lat="47.32567" lon="5.00729">
        <ele>259.4</ele>
        <time>2015-12-08T13:05:35Z</time>
      </trkpt>
      <trkpt lat="47.3257" lon="5.00715">
        <ele>258.1</ele>
        <time>2015-12-08T13:05:40Z</time>
      </trkpt>
      <trkpt lat="47.32578" lon="5.0071">
        <ele>258.8</ele>
        <time>2015-12-08T13:05:49Z</time>
      </trkpt>
      <trkpt lat="47.32587" lon="5.00704">
        <ele>259.4</ele>
        <time>2015-12-08T13:05:58Z</time>
      </trkpt>
      <trkpt lat="47.32594" lon="5.00696">
        <ele>259.7</ele>
        <time>2015-12-08T13:06:10Z</time>
      </trkpt>
      <trkpt lat="47.32602" lon="5.00688">
        <ele>260</ele>
        <time>2015-12-08T13:06:18Z</time>
      </trkpt>
      <trkpt lat="47.3261" lon="5.0068">
        <ele>260.5</ele>
        <time>2015-12-08T13:06:27Z</time>
      </trkpt>
      <trkpt lat="47.32619" lon="5.00675">
        <ele>261.7</ele>
        <time>2015-12-08T13:06:37Z</time>
      </trkpt>
      <trkpt lat="47.32628" lon="5.00669">
        <ele>262.9</ele>
        <time>2015-12-08T13:06:46Z</time>
      </trkpt>
      <trkpt lat="47.32636" lon="5.00663">
        <ele>264</ele>
        <time>2015-12-08T13:06:55Z</time>
      </trkpt>
      <trkpt lat="47.32645" lon="5.00656">
        <ele>264.9</ele>
        <time>2015-12-08T13:07:04Z</time>
      </trkpt>
      <trkpt lat="47.32653" lon="5.00647">
        <ele>265.2</ele>
        <time>2015-12-08T13:07:12Z</time>
      </trkpt>
      <trkpt lat="47.32662" lon="5.00643">
        <ele>266.2</ele>
        <time>2015-12-08T13:07:17Z</time>
      </trkpt>
      <trkpt lat="47.32672" lon="5.00639">
        <ele>267.9</ele>
        <time>2015-12-08T13:07:22Z</time>
      </trkpt>
      <trkpt lat="47.32681" lon="5.00632">
        <ele>269.2</ele>
        <time>2015-12-08T13:07:29Z</time>
      </trkpt>
      <trkpt lat="47.32687" lon="5.00624">
        <ele>270</ele>
        <time>2015-12-08T13:07:37Z</time>
      </trkpt>
      <trkpt lat="47.32692" lon="5.0061">
        <ele>269.3</ele>
        <time>2015-12-08T13:07:46Z</time>
      </trkpt>
      <trkpt lat="47.32695" lon="5.00596">
        <ele>268.6</ele>
        <time>2015-12-08T13:07:56Z</time>
      </trkpt>
      <trkpt lat="47.32698" lon="5.00583">
        <ele>268</ele>
        <time>2015-12-08T13:08:07Z</time>
      </trkpt>
      <trkpt lat="47.327" lon="5.00569">
        <ele>266.5</ele>
        <time>2015-12-08T13:08:13Z</time>
      </trkpt>
      <trkpt lat="47.32702" lon="5.00555">
        <ele>265.5</ele>
        <time>2015-12-08T13:08:21Z</time>
      </trkpt>
      <trkpt lat="47.32707" lon="5.00542">
        <ele>264.9</ele>
        <time>2015-12-08T13:08:30Z</time>
      </trkpt>
      <trkpt lat="47.3271" lon="5.00528">
        <ele>263.4</ele>
        <time>2015-12-08T13:08:36Z</time>
      </trkpt>
      <trkpt lat="47.32713" lon="5.00516">
        <ele>262.3</ele>
        <time>2015-12-08T13:08:41Z</time>
      </trkpt>
      <trkpt lat="47.32718" lon="5.00505">
        <ele>261.5</ele>
        <time>2015-12-08T13:08:48Z</time>
      </trkpt>
      <trkpt lat="47.32723" lon="5.00492">
        <ele>260.9</ele>
        <time>2015-12-08T13:08:58Z</time>
      </trkpt>
      <trkpt lat="47.32727" lon="5.00479">
        <ele>259.6</ele>
        <time>2015-12-08T13:09:07Z</time>
      </trkpt>
      <trkpt lat="47.32733" lon="5.00468">
        <ele>259</ele>
        <time>2015-12-08T13:09:16Z</time>
      </trkpt>
      <trkpt lat="47.32737" lon="5.00455">
        <ele>257.5</ele>
        <time>2015-12-08T13:09:25Z</time>
      </trkpt>
      <trkpt lat="47.3274" lon="5.00441">
        <ele>255.5</ele>
        <time>2015-12-08T13:09:32Z</time>
      </trkpt>
      <trkpt lat="47.32745" lon="5.00429">
        <ele>253.9</ele>
        <time>2015-12-08T13:09:41Z</time>
      </trkpt>
      <trkpt lat="47.32751" lon="5.00418">
        <ele>252.5</ele>
        <time>2015-12-08T13:09:50Z</time>
      </trkpt>
      <trkpt lat="47.32759" lon="5.00407">
        <ele>253.2</ele>
        <time>2015-12-08T13:09:59Z</time>
      </trkpt>
      <trkpt lat="47.32765" lon="5.00395">
        <ele>254</ele>
        <time>2015-12-08T13:10:06Z</time>
      </trkpt>
      <trkpt lat="47.32772" lon="5.00387">
        <ele>255.3</ele>
        <time>2015-12-08T13:10:13Z</time>
      </trkpt>
      <trkpt lat="47.32777" lon="5.00375">
        <ele>256.2</ele>
        <time>2015-12-08T13:10:20Z</time>
      </trkpt>
      <trkpt lat="47.32783" lon="5.00362">
        <ele>257.4</ele>
        <time>2015-12-08T13:10:26Z</time>
      </trkpt>
      <trkpt lat="47.32792" lon="5.00361">
        <ele>259.7</ele>
        <time>2015-12-08T13:11:02Z</time>
      </trkpt>
      <trkpt lat="47.32801" lon="5.00366">
        <ele>261.8</ele>
        <time>2015-12-08T13:11:12Z</time>
      </trkpt>
      <trkpt lat="47.32809" lon="5.00374">
        <ele>263.5</ele>
        <time>2015-12-08T13:11:51Z</time>
      </trkpt>
      <trkpt lat="47.32819" lon="5.00377">
        <ele>265.6</ele>
        <time>2015-12-08T13:12:01Z</time>
      </trkpt>
      <trkpt lat="47.32828" lon="5.00382">
        <ele>267.5</ele>
        <time>2015-12-08T13:12:13Z</time>
      </trkpt>
      <trkpt lat="47.32837" lon="5.00385">
        <ele>269.4</ele>
        <time>2015-12-08T13:12:30Z</time>
      </trkpt>
      <trkpt lat="47.32845" lon="5.00392">
        <ele>270.8</ele>
        <time>2015-12-08T13:13:11Z</time>
      </trkpt>
      <trkpt lat="47.32854" lon="5.00398">
        <ele>272.6</ele>
        <time>2015-12-08T13:13:16Z</time>
      </trkpt>
      <trkpt lat="47.32862" lon="5.00403">
        <ele>274.2</ele>
        <time>2015-12-08T13:13:27Z</time>
      </trkpt>
      <trkpt lat="47.32871" lon="5.00407">
        <ele>276</ele>
        <time>2015-12-08T13:13:42Z</time>
      </trkpt>
      <trkpt lat="47.32878" lon="5.00416">
        <ele>277.2</ele>
        <time>2015-12-08T13:13:57Z</time>
      </trkpt>
      <trkpt lat="47.32885" lon="5.00426">
        <ele>278.8</ele>
        <time>2015-12-08T13:14:07Z</time>
      </trkpt>
      <trkpt lat="47.32893" lon="5.00433">
        <ele>280.5</ele>
        <time>2015-12-08T13:14:19Z</time>
      </trkpt>
      <trkpt lat="47.32901" lon="5.00439">
        <ele>282.2</ele>
        <time>2015-12-08T13:14:31Z</time>
      </trkpt>
      <trkpt lat="47.32909" lon="5.00446">
        <ele>283.6</ele>
        <time>2015-12-08T13:14:45Z</time>
      </trkpt>
      <trkpt lat="47.32916" lon="5.00456">
        <ele>284.5</ele>
        <time>2015-12-08T13:15:03Z</time>
      </trkpt>
      <trkpt lat="47.32924" lon="5.00463">
        <ele>286.3</ele>
        <time>2015-12-08T13:15:15Z</time>
      </trkpt>
      <trkpt lat="47.32931" lon="5.00471">
        <ele>287.9</ele>
        <time>2015-12-08T13:15:30Z</time>
      </trkpt>
      <trkpt lat="47.32939" lon="5.00479">
        <ele>289.5</ele>
        <time>2015-12-08T13:15:42Z</time>
      </trkpt>
      <trkpt lat="47.32946" lon="5.00489">
        <ele>291.1</ele>
        <time>2015-12-08T13:16:07Z</time>
      </trkpt>
      <trkpt lat="47.32947" lon="5.00503">
        <ele>291.2</ele>
        <time>2015-12-08T13:17:22Z</time>
      </trkpt>
      <trkpt lat="47.32953" lon="5.00515">
        <ele>293.3</ele>
        <time>2015-12-08T13:17:38Z</time>
      </trkpt>
      <trkpt lat="47.32963" lon="5.00519">
        <ele>295.9</ele>
        <time>2015-12-08T13:17:46Z</time>
      </trkpt>
      <trkpt lat="47.32969" lon="5.00529">
        <ele>297.9</ele>
        <time>2015-12-08T13:17:56Z</time>
      </trkpt>
      <trkpt lat="47.3297" lon="5.00542">
        <ele>298.5</ele>
        <time>2015-12-08T13:18:15Z</time>
      </trkpt>
      <trkpt lat="47.32974" lon="5.00554">
        <ele>299.8</ele>
        <time>2015-12-08T13:18:33Z</time>
      </trkpt>
      <trkpt lat="47.32983" lon="5.00552">
        <ele>301.6</ele>
        <time>2015-12-08T13:19:18Z</time>
      </trkpt>
      <trkpt lat="47.32984" lon="5.00538">
        <ele>301.4</ele>
        <time>2015-12-08T13:19:34Z</time>
      </trkpt>
      <trkpt lat="47.32983" lon="5.00523">
        <ele>301</ele>
        <time>2015-12-08T13:19:43Z</time>
      </trkpt>
      <trkpt lat="47.32983" lon="5.00507">
        <ele>300.6</ele>
        <time>2015-12-08T13:19:56Z</time>
      </trkpt>
      <trkpt lat="47.32982" lon="5.00494">
        <ele>300.3</ele>
        <time>2015-12-08T13:20:02Z</time>
      </trkpt>
      <trkpt lat="47.32979" lon="5.00481">
        <ele>299.8</ele>
        <time>2015-12-08T13:20:08Z</time>
      </trkpt>
      <trkpt lat="47.32974" lon="5.00469">
        <ele>298.7</ele>
        <time>2015-12-08T13:20:15Z</time>
      </trkpt>
      <trkpt lat="47.32967" lon="5.00458">
        <ele>297.2</ele>
        <time>2015-12-08T13:20:23Z</time>
      </trkpt>
      <trkpt lat="47.32962" lon="5.00447">
        <ele>296.1</ele>
        <time>2015-12-08T13:20:30Z</time>
      </trkpt>
      <trkpt lat="47.32961" lon="5.00434">
        <ele>296.3</ele>
        <time>2015-12-08T13:20:43Z</time>
      </trkpt>
      <trkpt lat="47.32965" lon="5.0042">
        <ele>297.4</ele>
        <time>2015-12-08T13:20:53Z</time>
      </trkpt>
      <trkpt lat="47.32968" lon="5.00407">
        <ele>298.4</ele>
        <time>2015-12-08T13:21:03Z</time>
      </trkpt>
      <trkpt lat="47.3297" lon="5.00394">
        <ele>299</ele>
        <time>2015-12-08T13:21:12Z</time>
      </trkpt>
      <trkpt lat="47.3297" lon="5.0038">
        <ele>299.2</ele>
        <time>2015-12-08T13:21:25Z</time>
      </trkpt>
      <trkpt lat="47.32972" lon="5.00366">
        <ele>299.6</ele>
        <time>2015-12-08T13:21:36Z</time>
      </trkpt>
      <trkpt lat="47.32972" lon="5.00352">
        <ele>299.7</ele>
        <time>2015-12-08T13:21:48Z</time>
      </trkpt>
      <trkpt lat="47.32972" lon="5.00338">
        <ele>299.9</ele>
        <time>2015-12-08T13:22:04Z</time>
      </trkpt>
      <trkpt lat="47.32969" lon="5.00325">
        <ele>299</ele>
        <time>2015-12-08T13:22:11Z</time>
      </trkpt>
      <trkpt lat="47.32963" lon="5.00314">
        <ele>297.5</ele>
        <time>2015-12-08T13:22:31Z</time>
      </trkpt>
      <trkpt lat="47.32971" lon="5.00322">
        <ele>299.2</ele>
        <time>2015-12-08T13:25:07Z</time>
      </trkpt>
      <trkpt lat="47.3298" lon="5.00321">
        <ele>300.9</ele>
        <time>2015-12-08T13:25:25Z</time>
      </trkpt>
      <trkpt lat="47.3299" lon="5.00321">
        <ele>302.8</ele>
        <time>2015-12-08T13:25:49Z</time>
      </trkpt>
      <trkpt lat="47.33" lon="5.00321">
        <ele>304.5</ele>
        <time>2015-12-08T13:26:05Z</time>
      </trkpt>
      <trkpt lat="47.33009" lon="5.00321">
        <ele>305.4</ele>
        <time>2015-12-08T13:26:15Z</time>
      </trkpt>
      <trkpt lat="47.33016" lon="5.00312">
        <ele>305.8</ele>
        <time>2015-12-08T13:26:24Z</time>
      </trkpt>
      <trkpt lat="47.33024" lon="5.00303">
        <ele>306.2</ele>
        <time>2015-12-08T13:26:34Z</time>
      </trkpt>
      <trkpt lat="47.3303" lon="5.00293">
        <ele>306.5</ele>
        <time>2015-12-08T13:26:45Z</time>
      </trkpt>
      <trkpt lat="47.33035" lon="5.0028">
        <ele>306.4</ele>
        <time>2015-12-08T13:26:53Z</time>
      </trkpt>
      <trkpt lat="47.3304" lon="5.00269">
        <ele>306.5</ele>
        <time>2015-12-08T13:27:00Z</time>
      </trkpt>
      <trkpt lat="47.33044" lon="5.00255">
        <ele>306.4</ele>
        <time>2015-12-08T13:27:08Z</time>
      </trkpt>
      <trkpt lat="47.33048" lon="5.00243">
        <ele>306.1</ele>
        <time>2015-12-08T13:27:17Z</time>
      </trkpt>
      <trkpt lat="47.33051" lon="5.0023">
        <ele>305.5</ele>
        <time>2015-12-08T13:27:25Z</time>
      </trkpt>
      <trkpt lat="47.33054" lon="5.00217">
        <ele>304.9</ele>
        <time>2015-12-08T13:27:35Z</time>
      </trkpt>
      <trkpt lat="47.33059" lon="5.00205">
        <ele>304.5</ele>
        <time>2015-12-08T13:27:44Z</time>
      </trkpt>
      <trkpt lat="47.33061" lon="5.00192">
        <ele>303.8</ele>
        <time>2015-12-08T13:27:52Z</time>
      </trkpt>
      <trkpt lat="47.33064" lon="5.00178">
        <ele>303.2</ele>
        <time>2015-12-08T13:28:02Z</time>
      </trkpt>
      <trkpt lat="47.33069" lon="5.00167">
        <ele>302.8</ele>
        <time>2015-12-08T13:28:09Z</time>
      </trkpt>
      <trkpt lat="47.33075" lon="5.00154">
        <ele>301.6</ele>
        <time>2015-12-08T13:28:16Z</time>
      </trkpt>
      <trkpt lat="47.33078" lon="5.0014">
        <ele>300</ele>
        <time>2015-12-08T13:28:24Z</time>
      </trkpt>
      <trkpt lat="47.3308" lon="5.00126">
        <ele>298.5</ele>
        <time>2015-12-08T13:28:32Z</time>
      </trkpt>
      <trkpt lat="47.33086" lon="5.00115">
        <ele>297.3</ele>
        <time>2015-12-08T13:28:43Z</time>
      </trkpt>
      <trkpt lat="47.33096" lon="5.00112">
        <ele>297.8</ele>
        <time>2015-12-08T13:28:55Z</time>
      </trkpt>
      <trkpt lat="47.33105" lon="5.00114">
        <ele>298.6</ele>
        <time>2015-12-08T13:29:01Z</time>
      </trkpt>
      <trkpt lat="47.33114" lon="5.00112">
        <ele>299.1</ele>
        <time>2015-12-08T13:29:08Z</time>
      </trkpt>
      <trkpt lat="47.33124" lon="5.00109">
        <ele>299.7</ele>
        <time>2015-12-08T13:29:16Z</time>
      </trkpt>
      <trkpt lat="47.33133" lon="5.00109">
        <ele>300.4</ele>
        <time>2015-12-08T13:29:26Z</time>
      </trkpt>
      <trkpt lat="47.33142" lon="5.00114">
        <ele>301.5</ele>
        <time>2015-12-08T13:29:41Z</time>
      </trkpt>
      <trkpt lat="47.33151" lon="5.00114">
        <ele>302.2</ele>
        <time>2015-12-08T13:29:50Z</time>
      </trkpt>
      <trkpt lat="47.3316" lon="5.00117">
        <ele>303.1</ele>
        <time>2015-12-08T13:29:57Z</time>
      </trkpt>
      <trkpt lat="47.33169" lon="5.00123">
        <ele>304.5</ele>
        <time>2015-12-08T13:30:06Z</time>
      </trkpt>
      <trkpt lat="47.33178" lon="5.00133">
        <ele>306.5</ele>
        <time>2015-12-08T13:30:15Z</time>
      </trkpt>
      <trkpt lat="47.33185" lon="5.00142">
        <ele>308.2</ele>
        <time>2015-12-08T13:30:23Z</time>
      </trkpt>
      <trkpt lat="47.33192" lon="5.0015">
        <ele>309.9</ele>
        <time>2015-12-08T13:30:33Z</time>
      </trkpt>
      <trkpt lat="47.33199" lon="5.00158">
        <ele>311.6</ele>
        <time>2015-12-08T13:30:43Z</time>
      </trkpt>
      <trkpt lat="47.33207" lon="5.00167">
        <ele>313.3</ele>
        <time>2015-12-08T13:30:53Z</time>
      </trkpt>
      <trkpt lat="47.33213" lon="5.00178">
        <ele>314.8</ele>
        <time>2015-12-08T13:31:06Z</time>
      </trkpt>
      <trkpt lat="47.33213" lon="5.00191">
        <ele>315.5</ele>
        <time>2015-12-08T13:31:18Z</time>
      </trkpt>
      <trkpt lat="47.33216" lon="5.00204">
        <ele>316.6</ele>
        <time>2015-12-08T13:31:31Z</time>
      </trkpt>
      <trkpt lat="47.33223" lon="5.00213">
        <ele>318</ele>
        <time>2015-12-08T13:32:27Z</time>
      </trkpt>
      <trkpt lat="47.33232" lon="5.00218">
        <ele>319.3</ele>
        <time>2015-12-08T13:32:45Z</time>
      </trkpt>
      <trkpt lat="47.33241" lon="5.00219">
        <ele>320.4</ele>
        <time>2015-12-08T13:33:56Z</time>
      </trkpt>
      <trkpt lat="47.3325" lon="5.00216">
        <ele>321.6</ele>
        <time>2015-12-08T13:35:14Z</time>
      </trkpt>
      <trkpt lat="47.33259" lon="5.00211">
        <ele>323</ele>
        <time>2015-12-08T13:35:25Z</time>
      </trkpt>
      <trkpt lat="47.33265" lon="5.00202">
        <ele>324</ele>
        <time>2015-12-08T13:35:34Z</time>
      </trkpt>
      <trkpt lat="47.33273" lon="5.00193">
        <ele>325</ele>
        <time>2015-12-08T13:35:45Z</time>
      </trkpt>
      <trkpt lat="47.33281" lon="5.00186">
        <ele>325.9</ele>
        <time>2015-12-08T13:35:55Z</time>
      </trkpt>
      <trkpt lat="47.33285" lon="5.00174">
        <ele>325.9</ele>
        <time>2015-12-08T13:36:08Z</time>
      </trkpt>
      <trkpt lat="47.33287" lon="5.0016">
        <ele>325.7</ele>
        <time>2015-12-08T13:36:19Z</time>
      </trkpt>
      <trkpt lat="47.33289" lon="5.00146">
        <ele>325.4</ele>
        <time>2015-12-08T13:36:28Z</time>
      </trkpt>
      <trkpt lat="47.33289" lon="5.00133">
        <ele>325</ele>
        <time>2015-12-08T13:36:37Z</time>
      </trkpt>
      <trkpt lat="47.33287" lon="5.0012">
        <ele>324.3</ele>
        <time>2015-12-08T13:36:46Z</time>
      </trkpt>
      <trkpt lat="47.33285" lon="5.00105">
        <ele>323.7</ele>
        <time>2015-12-08T13:36:53Z</time>
      </trkpt>
      <trkpt lat="47.33286" lon="5.00091">
        <ele>323.2</ele>
        <time>2015-12-08T13:37:01Z</time>
      </trkpt>
      <trkpt lat="47.33289" lon="5.00077">
        <ele>323.3</ele>
        <time>2015-12-08T13:37:11Z</time>
      </trkpt>
      <trkpt lat="47.33292" lon="5.00065">
        <ele>323.7</ele>
        <time>2015-12-08T13:37:21Z</time>
      </trkpt>
      <trkpt lat="47.33291" lon="5.00052">
        <ele>323.6</ele>
        <time>2015-12-08T13:37:44Z</time>
      </trkpt>
      <trkpt lat="47.33292" lon="5.00038">
        <ele>323.8</ele>
        <time>2015-12-08T13:37:56Z</time>
      </trkpt>
      <trkpt lat="47.33289" lon="5.00025">
        <ele>323.7</ele>
        <time>2015-12-08T13:38:05Z</time>
      </trkpt>
      <trkpt lat="47.33287" lon="5.00011">
        <ele>323.6</ele>
        <time>2015-12-08T13:38:14Z</time>
      </trkpt>
      <trkpt lat="47.33286" lon="4.99996">
        <ele>323.5</ele>
        <time>2015-12-08T13:38:26Z</time>
      </trkpt>
      <trkpt lat="47.33287" lon="4.99983">
        <ele>323.4</ele>
        <time>2015-12-08T13:38:34Z</time>
      </trkpt>
      <trkpt lat="47.3329" lon="4.9997">
        <ele>323.3</ele>
        <time>2015-12-08T13:38:44Z</time>
      </trkpt>
      <trkpt lat="47.33285" lon="4.99958">
        <ele>322.8</ele>
        <time>2015-12-08T13:39:01Z</time>
      </trkpt>
      <trkpt lat="47.3328" lon="4.99947">
        <ele>322.3</ele>
        <time>2015-12-08T13:39:12Z</time>
      </trkpt>
      <trkpt lat="47.33273" lon="4.99938">
        <ele>321.7</ele>
        <time>2015-12-08T13:39:21Z</time>
      </trkpt>
      <trkpt lat="47.33265" lon="4.99927">
        <ele>321.1</ele>
        <time>2015-12-08T13:39:30Z</time>
      </trkpt>
      <trkpt lat="47.3326" lon="4.99916">
        <ele>320.6</ele>
        <time>2015-12-08T13:39:38Z</time>
      </trkpt>
      <trkpt lat="47.33257" lon="4.99902">
        <ele>320.1</ele>
        <time>2015-12-08T13:39:50Z</time>
      </trkpt>
      <trkpt lat="47.33259" lon="4.99887">
        <ele>319.8</ele>
        <time>2015-12-08T13:39:56Z</time>
      </trkpt>
      <trkpt lat="47.3326" lon="4.99873">
        <ele>319.6</ele>
        <time>2015-12-08T13:40:03Z</time>
      </trkpt>
      <trkpt lat="47.33262" lon="4.99858">
        <ele>319.4</ele>
        <time>2015-12-08T13:40:12Z</time>
      </trkpt>
      <trkpt lat="47.33263" lon="4.99844">
        <ele>319.2</ele>
        <time>2015-12-08T13:40:21Z</time>
      </trkpt>
      <trkpt lat="47.33266" lon="4.9983">
        <ele>318.9</ele>
        <time>2015-12-08T13:40:31Z</time>
      </trkpt>
      <trkpt lat="47.33267" lon="4.99816">
        <ele>318.3</ele>
        <time>2015-12-08T13:40:42Z</time>
      </trkpt>
      <trkpt lat="47.33264" lon="4.99804">
        <ele>317.4</ele>
        <time>2015-12-08T13:40:52Z</time>
      </trkpt>
      <trkpt lat="47.3326" lon="4.99791">
        <ele>316.5</ele>
        <time>2015-12-08T13:41:04Z</time>
      </trkpt>
      <trkpt lat="47.33258" lon="4.99778">
        <ele>315.7</ele>
        <time>2015-12-08T13:41:14Z</time>
      </trkpt>
      <trkpt lat="47.33257" lon="4.99764">
        <ele>314.9</ele>
        <time>2015-12-08T13:41:24Z</time>
      </trkpt>
      <trkpt lat="47.33259" lon="4.99751">
        <ele>314.3</ele>
        <time>2015-12-08T13:41:31Z</time>
      </trkpt>
      <trkpt lat="47.33262" lon="4.99737">
        <ele>313</ele>
        <time>2015-12-08T13:41:38Z</time>
      </trkpt>
      <trkpt lat="47.33268" lon="4.99724">
        <ele>311.9</ele>
        <time>2015-12-08T13:41:47Z</time>
      </trkpt>
      <trkpt lat="47.33273" lon="4.99713">
        <ele>310.7</ele>
        <time>2015-12-08T13:41:55Z</time>
      </trkpt>
      <trkpt lat="47.33279" lon="4.99703">
        <ele>309.3</ele>
        <time>2015-12-08T13:42:01Z</time>
      </trkpt>
      <trkpt lat="47.33286" lon="4.99694">
        <ele>308</ele>
        <time>2015-12-08T13:42:09Z</time>
      </trkpt>
      <trkpt lat="47.33293" lon="4.99686">
        <ele>306.6</ele>
        <time>2015-12-08T13:42:18Z</time>
      </trkpt>
      <trkpt lat="47.33303" lon="4.99683">
        <ele>305.7</ele>
        <time>2015-12-08T13:42:29Z</time>
      </trkpt>
      <trkpt lat="47.33313" lon="4.99681">
        <ele>304.9</ele>
        <time>2015-12-08T13:42:37Z</time>
      </trkpt>
      <trkpt lat="47.33322" lon="4.99679">
        <ele>303.9</ele>
        <time>2015-12-08T13:42:46Z</time>
      </trkpt>
      <trkpt lat="47.33332" lon="4.99679">
        <ele>303.3</ele>
        <time>2015-12-08T13:42:56Z</time>
      </trkpt>
      <trkpt lat="47.33342" lon="4.99679">
        <ele>303.4</ele>
        <time>2015-12-08T13:43:05Z</time>
      </trkpt>
      <trkpt lat="47.33351" lon="4.99679">
        <ele>303.6</ele>
        <time>2015-12-08T13:43:14Z</time>
      </trkpt>
      <trkpt lat="47.3336" lon="4.99681">
        <ele>304.1</ele>
        <time>2015-12-08T13:43:23Z</time>
      </trkpt>
      <trkpt lat="47.3337" lon="4.99682">
        <ele>304.6</ele>
        <time>2015-12-08T13:43:34Z</time>
      </trkpt>
      <trkpt lat="47.33378" lon="4.99677">
        <ele>304</ele>
        <time>2015-12-08T13:43:45Z</time>
      </trkpt>
      <trkpt lat="47.33381" lon="4.99664">
        <ele>301.8</ele>
        <time>2015-12-08T13:44:01Z</time>
      </trkpt>
      <trkpt lat="47.33388" lon="4.99654">
        <ele>300.5</ele>
        <time>2015-12-08T13:44:10Z</time>
      </trkpt>
      <trkpt lat="47.33397" lon="4.9965">
        <ele>300.2</ele>
        <time>2015-12-08T13:44:22Z</time>
      </trkpt>
      <trkpt lat="47.33406" lon="4.99653">
        <ele>300.8</ele>
        <time>2015-12-08T13:44:30Z</time>
      </trkpt>
      <trkpt lat="47.33415" lon="4.99656">
        <ele>301.4</ele>
        <time>2015-12-08T13:44:38Z</time>
      </trkpt>
      <trkpt lat="47.33424" lon="4.9966">
        <ele>301.6</ele>
        <time>2015-12-08T13:44:47Z</time>
      </trkpt>
      <trkpt lat="47.33433" lon="4.99664">
        <ele>301.8</ele>
        <time>2015-12-08T13:44:54Z</time>
      </trkpt>
      <trkpt lat="47.33442" lon="4.99668">
        <ele>301.7</ele>
        <time>2015-12-08T13:45:04Z</time>
      </trkpt>
      <trkpt lat="47.33451" lon="4.99671">
        <ele>301.6</ele>
        <time>2015-12-08T13:45:12Z</time>
      </trkpt>
      <trkpt lat="47.33461" lon="4.99672">
        <ele>301.2</ele>
        <time>2015-12-08T13:45:21Z</time>
      </trkpt>
      <trkpt lat="47.3347" lon="4.99674">
        <ele>300.8</ele>
        <time>2015-12-08T13:45:30Z</time>
      </trkpt>
      <trkpt lat="47.3348" lon="4.99674">
        <ele>300.2</ele>
        <time>2015-12-08T13:45:39Z</time>
      </trkpt>
      <trkpt lat="47.33489" lon="4.99677">
        <ele>300.2</ele>
        <time>2015-12-08T13:45:49Z</time>
      </trkpt>
      <trkpt lat="47.33498" lon="4.99681">
        <ele>300.2</ele>
        <time>2015-12-08T13:45:57Z</time>
      </trkpt>
      <trkpt lat="47.33507" lon="4.99685">
        <ele>300.7</ele>
        <time>2015-12-08T13:46:05Z</time>
      </trkpt>
      <trkpt lat="47.33516" lon="4.99689">
        <ele>301.6</ele>
        <time>2015-12-08T13:46:13Z</time>
      </trkpt>
      <trkpt lat="47.33526" lon="4.99692">
        <ele>302.1</ele>
        <time>2015-12-08T13:46:21Z</time>
      </trkpt>
      <trkpt lat="47.33534" lon="4.997">
        <ele>303</ele>
        <time>2015-12-08T13:46:29Z</time>
      </trkpt>
      <trkpt lat="47.33542" lon="4.99707">
        <ele>303.6</ele>
        <time>2015-12-08T13:46:40Z</time>
      </trkpt>
      <trkpt lat="47.3355" lon="4.99713">
        <ele>303.9</ele>
        <time>2015-12-08T13:46:47Z</time>
      </trkpt>
      <trkpt lat="47.33559" lon="4.99718">
        <ele>304.1</ele>
        <time>2015-12-08T13:46:55Z</time>
      </trkpt>
      <trkpt lat="47.33568" lon="4.9972">
        <ele>304</ele>
        <time>2015-12-08T13:47:05Z</time>
      </trkpt>
      <trkpt lat="47.33578" lon="4.9972">
        <ele>303.7</ele>
        <time>2015-12-08T13:47:14Z</time>
      </trkpt>
      <trkpt lat="47.33588" lon="4.99721">
        <ele>304.4</ele>
        <time>2015-12-08T13:47:23Z</time>
      </trkpt>
      <trkpt lat="47.33596" lon="4.99725">
        <ele>306.1</ele>
        <time>2015-12-08T13:47:31Z</time>
      </trkpt>
      <trkpt lat="47.33605" lon="4.99727">
        <ele>307.7</ele>
        <time>2015-12-08T13:47:41Z</time>
      </trkpt>
      <trkpt lat="47.33614" lon="4.99732">
        <ele>309.2</ele>
        <time>2015-12-08T13:47:52Z</time>
      </trkpt>
      <trkpt lat="47.33624" lon="4.99734">
        <ele>310.7</ele>
        <time>2015-12-08T13:48:01Z</time>
      </trkpt>
      <trkpt lat="47.33632" lon="4.99742">
        <ele>311.9</ele>
        <time>2015-12-08T13:48:16Z</time>
      </trkpt>
      <trkpt lat="47.33641" lon="4.99746">
        <ele>313.1</ele>
        <time>2015-12-08T13:48:27Z</time>
      </trkpt>
      <trkpt lat="47.3365" lon="4.99743">
        <ele>314.8</ele>
        <time>2015-12-08T13:48:39Z</time>
      </trkpt>
      <trkpt lat="47.33655" lon="4.99732">
        <ele>316.3</ele>
        <time>2015-12-08T13:48:49Z</time>
      </trkpt>
      <trkpt lat="47.33659" lon="4.99719">
        <ele>317.8</ele>
        <time>2015-12-08T13:49:12Z</time>
      </trkpt>
      <trkpt lat="47.33661" lon="4.99706">
        <ele>318.9</ele>
        <time>2015-12-08T13:49:24Z</time>
      </trkpt>
      <trkpt lat="47.33662" lon="4.99693">
        <ele>320.2</ele>
        <time>2015-12-08T13:49:33Z</time>
      </trkpt>
      <trkpt lat="47.3366" lon="4.99678">
        <ele>320.8</ele>
        <time>2015-12-08T13:49:45Z</time>
      </trkpt>
      <trkpt lat="47.33656" lon="4.99665">
        <ele>320.7</ele>
        <time>2015-12-08T13:49:51Z</time>
      </trkpt>
      <trkpt lat="47.33648" lon="4.99657">
        <ele>319.6</ele>
        <time>2015-12-08T13:49:59Z</time>
      </trkpt>
      <trkpt lat="47.3364" lon="4.99652">
        <ele>318.4</ele>
        <time>2015-12-08T13:50:07Z</time>
      </trkpt>
      <trkpt lat="47.33632" lon="4.99645">
        <ele>317.3</ele>
        <time>2015-12-08T13:50:17Z</time>
      </trkpt>
      <trkpt lat="47.33623" lon="4.99638">
        <ele>316.3</ele>
        <time>2015-12-08T13:50:26Z</time>
      </trkpt>
      <trkpt lat="47.33615" lon="4.99629">
        <ele>315.7</ele>
        <time>2015-12-08T13:50:35Z</time>
      </trkpt>
      <trkpt lat="47.33607" lon="4.9962">
        <ele>315.2</ele>
        <time>2015-12-08T13:50:43Z</time>
      </trkpt>
      <trkpt lat="47.33599" lon="4.99613">
        <ele>314.7</ele>
        <time>2015-12-08T13:50:50Z</time>
      </trkpt>
      <trkpt lat="47.3359" lon="4.99607">
        <ele>313.6</ele>
        <time>2015-12-08T13:50:58Z</time>
      </trkpt>
      <trkpt lat="47.3358" lon="4.99605">
        <ele>312.2</ele>
        <time>2015-12-08T13:51:05Z</time>
      </trkpt>
      <trkpt lat="47.3357" lon="4.99606">
        <ele>310.7</ele>
        <time>2015-12-08T13:51:12Z</time>
      </trkpt>
      <trkpt lat="47.3356" lon="4.99608">
        <ele>309.1</ele>
        <time>2015-12-08T13:51:21Z</time>
      </trkpt>
      <trkpt lat="47.33551" lon="4.99607">
        <ele>307.9</ele>
        <time>2015-12-08T13:51:29Z</time>
      </trkpt>
      <trkpt lat="47.33545" lon="4.99597">
        <ele>308.1</ele>
        <time>2015-12-08T13:51:41Z</time>
      </trkpt>
      <trkpt lat="47.33538" lon="4.99587">
        <ele>308.2</ele>
        <time>2015-12-08T13:51:52Z</time>
      </trkpt>
      <trkpt lat="47.33531" lon="4.99579">
        <ele>307.6</ele>
        <time>2015-12-08T13:52:00Z</time>
      </trkpt>
      <trkpt lat="47.33522" lon="4.99575">
        <ele>306.7</ele>
        <time>2015-12-08T13:52:08Z</time>
      </trkpt>
      <trkpt lat="47.33512" lon="4.99572">
        <ele>305.3</ele>
        <time>2015-12-08T13:52:18Z</time>
      </trkpt>
      <trkpt lat="47.33503" lon="4.99569">
        <ele>303.9</ele>
        <time>2015-12-08T13:52:25Z</time>
      </trkpt>
      <trkpt lat="47.33494" lon="4.99564">
        <ele>303</ele>
        <time>2015-12-08T13:52:35Z</time>
      </trkpt>
      <trkpt lat="47.33485" lon="4.99557">
        <ele>302.4</ele>
        <time>2015-12-08T13:52:46Z</time>
      </trkpt>
      <trkpt lat="47.33478" lon="4.99548">
        <ele>302.1</ele>
        <time>2015-12-08T13:52:55Z</time>
      </trkpt>
      <trkpt lat="47.3347" lon="4.9954">
        <ele>301.6</ele>
        <time>2015-12-08T13:53:04Z</time>
      </trkpt>
      <trkpt lat="47.33465" lon="4.99528">
        <ele>301.5</ele>
        <time>2015-12-08T13:53:16Z</time>
      </trkpt>
      <trkpt lat="47.33458" lon="4.99519">
        <ele>300.9</ele>
        <time>2015-12-08T13:53:24Z</time>
      </trkpt>
      <trkpt lat="47.3345" lon="4.99513">
        <ele>299.6</ele>
        <time>2015-12-08T13:53:33Z</time>
      </trkpt>
      <trkpt lat="47.3344" lon="4.99514">
        <ele>297.9</ele>
        <time>2015-12-08T13:53:41Z</time>
      </trkpt>
      <trkpt lat="47.33427" lon="4.99516">
        <ele>295.5</ele>
        <time>2015-12-08T13:53:50Z</time>
      </trkpt>
      <trkpt lat="47.33418" lon="4.99518">
        <ele>293.8</ele>
        <time>2015-12-08T13:53:57Z</time>
      </trkpt>
      <trkpt lat="47.33408" lon="4.99519">
        <ele>292.3</ele>
        <time>2015-12-08T13:54:06Z</time>
      </trkpt>
      <trkpt lat="47.33399" lon="4.99521">
        <ele>290.9</ele>
        <time>2015-12-08T13:54:14Z</time>
      </trkpt>
      <trkpt lat="47.3339" lon="4.99523">
        <ele>289.6</ele>
        <time>2015-12-08T13:54:26Z</time>
      </trkpt>
      <trkpt lat="47.33381" lon="4.99516">
        <ele>288.2</ele>
        <time>2015-12-08T13:54:34Z</time>
      </trkpt>
      <trkpt lat="47.33372" lon="4.99517">
        <ele>286.7</ele>
        <time>2015-12-08T13:54:43Z</time>
      </trkpt>
      <trkpt lat="47.33363" lon="4.99515">
        <ele>285.2</ele>
        <time>2015-12-08T13:54:51Z</time>
      </trkpt>
      <trkpt lat="47.33356" lon="4.99506">
        <ele>283.4</ele>
        <time>2015-12-08T13:55:04Z</time>
      </trkpt>
      <trkpt lat="47.33347" lon="4.99503">
        <ele>281.7</ele>
        <time>2015-12-08T13:55:16Z</time>
      </trkpt>
      <trkpt lat="47.33338" lon="4.995">
        <ele>279.9</ele>
        <time>2015-12-08T13:55:34Z</time>
      </trkpt>
      <trkpt lat="47.33331" lon="4.99508">
        <ele>279.7</ele>
        <time>2015-12-08T13:55:45Z</time>
      </trkpt>
      <trkpt lat="47.33321" lon="4.99507">
        <ele>278.9</ele>
        <time>2015-12-08T13:55:58Z</time>
      </trkpt>
      <trkpt lat="47.33311" lon="4.99504">
        <ele>278</ele>
        <time>2015-12-08T13:56:07Z</time>
      </trkpt>
      <trkpt lat="47.33303" lon="4.99498">
        <ele>276.8</ele>
        <time>2015-12-08T13:56:18Z</time>
      </trkpt>
      <trkpt lat="47.33294" lon="4.99496">
        <ele>276.1</ele>
        <time>2015-12-08T13:56:28Z</time>
      </trkpt>
      <trkpt lat="47.33286" lon="4.99489">
        <ele>275.4</ele>
        <time>2015-12-08T13:56:36Z</time>
      </trkpt>
      <trkpt lat="47.33277" lon="4.99483">
        <ele>274.6</ele>
        <time>2015-12-08T13:56:42Z</time>
      </trkpt>
      <trkpt lat="47.33268" lon="4.99477">
        <ele>273.5</ele>
        <time>2015-12-08T13:56:49Z</time>
      </trkpt>
      <trkpt lat="47.3326" lon="4.99472">
        <ele>272.3</ele>
        <time>2015-12-08T13:56:57Z</time>
      </trkpt>
      <trkpt lat="47.3325" lon="4.9947">
        <ele>271.2</ele>
        <time>2015-12-08T13:57:08Z</time>
      </trkpt>
      <trkpt lat="47.33241" lon="4.99465">
        <ele>270.4</ele>
        <time>2015-12-08T13:57:16Z</time>
      </trkpt>
      <trkpt lat="47.33233" lon="4.99458">
        <ele>269.5</ele>
        <time>2015-12-08T13:57:22Z</time>
      </trkpt>
      <trkpt lat="47.33224" lon="4.99453">
        <ele>268.7</ele>
        <time>2015-12-08T13:57:30Z</time>
      </trkpt>
      <trkpt lat="47.33215" lon="4.99447">
        <ele>267.8</ele>
        <time>2015-12-08T13:57:38Z</time>
      </trkpt>
      <trkpt lat="47.33206" lon="4.99445">
        <ele>267.1</ele>
        <time>2015-12-08T13:57:46Z</time>
      </trkpt>
      <trkpt lat="47.33197" lon="4.99439">
        <ele>266.3</ele>
        <time>2015-12-08T13:57:53Z</time>
      </trkpt>
      <trkpt lat="47.33188" lon="4.99435">
        <ele>265.5</ele>
        <time>2015-12-08T13:58:03Z</time>
      </trkpt>
      <trkpt lat="47.33179" lon="4.99431">
        <ele>264.7</ele>
        <time>2015-12-08T13:58:12Z</time>
      </trkpt>
      <trkpt lat="47.3317" lon="4.99431">
        <ele>264.1</ele>
        <time>2015-12-08T13:58:20Z</time>
      </trkpt>
      <trkpt lat="47.33161" lon="4.99429">
        <ele>263.4</ele>
        <time>2015-12-08T13:58:29Z</time>
      </trkpt>
      <trkpt lat="47.33151" lon="4.9943">
        <ele>262.9</ele>
        <time>2015-12-08T13:58:36Z</time>
      </trkpt>
      <trkpt lat="47.33142" lon="4.99434">
        <ele>262.5</ele>
        <time>2015-12-08T13:58:43Z</time>
      </trkpt>
      <trkpt lat="47.33132" lon="4.99434">
        <ele>261.9</ele>
        <time>2015-12-08T13:58:49Z</time>
      </trkpt>
      <trkpt lat="47.33137" lon="4.99422">
        <ele>261.2</ele>
        <time>2015-12-08T13:59:11Z</time>
      </trkpt>
      <trkpt lat="47.3314" lon="4.99409">
        <ele>261.2</ele>
        <time>2015-12-08T13:59:19Z</time>
      </trkpt>
      <trkpt lat="47.33144" lon="4.99396">
        <ele>261.8</ele>
        <time>2015-12-08T13:59:36Z</time>
      </trkpt>
      <trkpt lat="47.33149" lon="4.99386">
        <ele>262.4</ele>
        <time>2015-12-08T13:59:49Z</time>
      </trkpt>
      <trkpt lat="47.33151" lon="4.99372">
        <ele>262.9</ele>
        <time>2015-12-08T14:00:02Z</time>
      </trkpt>
      <trkpt lat="47.33156" lon="4.99361">
        <ele>263.5</ele>
        <time>2015-12-08T14:00:18Z</time>
      </trkpt>
      <trkpt lat="47.33161" lon="4.99348">
        <ele>264.2</ele>
        <time>2015-12-08T14:00:26Z</time>
      </trkpt>
      <trkpt lat="47.33163" lon="4.99335">
        <ele>264.7</ele>
        <time>2015-12-08T14:00:36Z</time>
      </trkpt>
      <trkpt lat="47.33168" lon="4.99322">
        <ele>265.4</ele>
        <time>2015-12-08T14:00:44Z</time>
      </trkpt>
      <trkpt lat="47.33173" lon="4.9931">
        <ele>266.1</ele>
        <time>2015-12-08T14:00:54Z</time>
      </trkpt>
      <trkpt lat="47.33178" lon="4.99299">
        <ele>267</ele>
        <time>2015-12-08T14:01:06Z</time>
      </trkpt>
      <trkpt lat="47.33183" lon="4.99287">
        <ele>267.8</ele>
        <time>2015-12-08T14:01:20Z</time>
      </trkpt>
      <trkpt lat="47.33188" lon="4.99276">
        <ele>268.8</ele>
        <time>2015-12-08T14:03:20Z</time>
      </trkpt>
      <trkpt lat="47.33191" lon="4.99263">
        <ele>269.7</ele>
        <time>2015-12-08T14:03:30Z</time>
      </trkpt>
      <trkpt lat="47.33198" lon="4.99255">
        <ele>271</ele>
        <time>2015-12-08T14:03:40Z</time>
      </trkpt>
      <trkpt lat="47.33205" lon="4.99245">
        <ele>272.3</ele>
        <time>2015-12-08T14:03:52Z</time>
      </trkpt>
      <trkpt lat="47.33214" lon="4.99238">
        <ele>273.9</ele>
        <time>2015-12-08T14:04:02Z</time>
      </trkpt>
      <trkpt lat="47.33223" lon="4.99233">
        <ele>275.7</ele>
        <time>2015-12-08T14:04:11Z</time>
      </trkpt>
      <trkpt lat="47.33229" lon="4.99222">
        <ele>277.3</ele>
        <time>2015-12-08T14:04:22Z</time>
      </trkpt>
      <trkpt lat="47.33236" lon="4.99213">
        <ele>279.2</ele>
        <time>2015-12-08T14:04:31Z</time>
      </trkpt>
      <trkpt lat="47.33244" lon="4.99205">
        <ele>281.2</ele>
        <time>2015-12-08T14:04:39Z</time>
      </trkpt>
      <trkpt lat="47.33251" lon="4.99195">
        <ele>283.5</ele>
        <time>2015-12-08T14:04:50Z</time>
      </trkpt>
      <trkpt lat="47.33255" lon="4.99184">
        <ele>285.3</ele>
        <time>2015-12-08T14:04:57Z</time>
      </trkpt>
      <trkpt lat="47.33258" lon="4.99171">
        <ele>287.1</ele>
        <time>2015-12-08T14:05:08Z</time>
      </trkpt>
      <trkpt lat="47.33259" lon="4.99157">
        <ele>287.7</ele>
        <time>2015-12-08T14:05:18Z</time>
      </trkpt>
      <trkpt lat="47.3326" lon="4.99143">
        <ele>287.8</ele>
        <time>2015-12-08T14:05:29Z</time>
      </trkpt>
      <trkpt lat="47.33263" lon="4.99131">
        <ele>288.3</ele>
        <time>2015-12-08T14:05:38Z</time>
      </trkpt>
      <trkpt lat="47.33267" lon="4.99118">
        <ele>288.9</ele>
        <time>2015-12-08T14:05:54Z</time>
      </trkpt>
      <trkpt lat="47.33268" lon="4.99105">
        <ele>289</ele>
        <time>2015-12-08T14:06:02Z</time>
      </trkpt>
      <trkpt lat="47.33273" lon="4.99092">
        <ele>289.7</ele>
        <time>2015-12-08T14:06:10Z</time>
      </trkpt>
      <trkpt lat="47.33277" lon="4.99078">
        <ele>289.7</ele>
        <time>2015-12-08T14:06:20Z</time>
      </trkpt>
      <trkpt lat="47.33282" lon="4.99066">
        <ele>289.3</ele>
        <time>2015-12-08T14:06:29Z</time>
      </trkpt>
      <trkpt lat="47.33287" lon="4.99055">
        <ele>288.7</ele>
        <time>2015-12-08T14:06:39Z</time>
      </trkpt>
      <trkpt lat="47.33295" lon="4.99047">
        <ele>288.9</ele>
        <time>2015-12-08T14:06:50Z</time>
      </trkpt>
      <trkpt lat="47.33301" lon="4.99036">
        <ele>288.8</ele>
        <time>2015-12-08T14:07:03Z</time>
      </trkpt>
      <trkpt lat="47.33307" lon="4.99024">
        <ele>288.2</ele>
        <time>2015-12-08T14:07:12Z</time>
      </trkpt>
      <trkpt lat="47.33313" lon="4.99014">
        <ele>287.9</ele>
        <time>2015-12-08T14:07:22Z</time>
      </trkpt>
      <trkpt lat="47.33319" lon="4.99003">
        <ele>287.6</ele>
        <time>2015-12-08T14:07:32Z</time>
      </trkpt>
      <trkpt lat="47.33325" lon="4.98994">
        <ele>287.4</ele>
        <time>2015-12-08T14:07:40Z</time>
      </trkpt>
      <trkpt lat="47.33333" lon="4.98987">
        <ele>287.7</ele>
        <time>2015-12-08T14:07:49Z</time>
      </trkpt>
      <trkpt lat="47.3334" lon="4.98978">
        <ele>286.9</ele>
        <time>2015-12-08T14:07:59Z</time>
      </trkpt>
      <trkpt lat="47.33347" lon="4.98969">
        <ele>286</ele>
        <time>2015-12-08T14:08:12Z</time>
      </trkpt>
      <trkpt lat="47.33353" lon="4.98958">
        <ele>284.4</ele>
        <time>2015-12-08T14:08:23Z</time>
      </trkpt>
      <trkpt lat="47.33358" lon="4.98947">
        <ele>282.8</ele>
        <time>2015-12-08T14:08:35Z</time>
      </trkpt>
      <trkpt lat="47.33364" lon="4.98937">
        <ele>281.3</ele>
        <time>2015-12-08T14:08:51Z</time>
      </trkpt>
      <trkpt lat="47.33368" lon="4.98923">
        <ele>278.8</ele>
        <time>2015-12-08T14:09:14Z</time>
      </trkpt>
      <trkpt lat="47.33372" lon="4.98911">
        <ele>276.8</ele>
        <time>2015-12-08T14:09:23Z</time>
      </trkpt>
      <trkpt lat="47.33376" lon="4.98899">
        <ele>275.3</ele>
        <time>2015-12-08T14:09:32Z</time>
      </trkpt>
      <trkpt lat="47.33381" lon="4.98888">
        <ele>273.9</ele>
        <time>2015-12-08T14:09:47Z</time>
      </trkpt>
      <trkpt lat="47.33386" lon="4.98876">
        <ele>272.7</ele>
        <time>2015-12-08T14:10:01Z</time>
      </trkpt>
      <trkpt lat="47.33393" lon="4.98865">
        <ele>271.3</ele>
        <time>2015-12-08T14:10:09Z</time>
      </trkpt>
      <trkpt lat="47.334" lon="4.98854">
        <ele>270.2</ele>
        <time>2015-12-08T14:10:16Z</time>
      </trkpt>
      <trkpt lat="47.33408" lon="4.98846">
        <ele>269.3</ele>
        <time>2015-12-08T14:10:23Z</time>
      </trkpt>
      <trkpt lat="47.33413" lon="4.98835">
        <ele>268</ele>
        <time>2015-12-08T14:10:30Z</time>
      </trkpt>
      <trkpt lat="47.3342" lon="4.98825">
        <ele>267.6</ele>
        <time>2015-12-08T14:10:42Z</time>
      </trkpt>
      <trkpt lat="47.33427" lon="4.98815">
        <ele>267.4</ele>
        <time>2015-12-08T14:10:52Z</time>
      </trkpt>
      <trkpt lat="47.33434" lon="4.98804">
        <ele>267.1</ele>
        <time>2015-12-08T14:10:59Z</time>
      </trkpt>
      <trkpt lat="47.33441" lon="4.98792">
        <ele>266.7</ele>
        <time>2015-12-08T14:11:06Z</time>
      </trkpt>
      <trkpt lat="47.33447" lon="4.98782">
        <ele>266.3</ele>
        <time>2015-12-08T14:11:13Z</time>
      </trkpt>
      <trkpt lat="47.33453" lon="4.98772">
        <ele>265.9</ele>
        <time>2015-12-08T14:11:21Z</time>
      </trkpt>
      <trkpt lat="47.3346" lon="4.98762">
        <ele>265.6</ele>
        <time>2015-12-08T14:11:29Z</time>
      </trkpt>
      <trkpt lat="47.33467" lon="4.98752">
        <ele>265.1</ele>
        <time>2015-12-08T14:11:37Z</time>
      </trkpt>
      <trkpt lat="47.33473" lon="4.98741">
        <ele>264.9</ele>
        <time>2015-12-08T14:11:46Z</time>
      </trkpt>
      <trkpt lat="47.3348" lon="4.98731">
        <ele>264.7</ele>
        <time>2015-12-08T14:11:55Z</time>
      </trkpt>
      <trkpt lat="47.33487" lon="4.98721">
        <ele>264.5</ele>
        <time>2015-12-08T14:12:04Z</time>
      </trkpt>
      <trkpt lat="47.33495" lon="4.98711">
        <ele>264.4</ele>
        <time>2015-12-08T14:12:12Z</time>
      </trkpt>
      <trkpt lat="47.33502" lon="4.98701">
        <ele>264.1</ele>
        <time>2015-12-08T14:12:20Z</time>
      </trkpt>
      <trkpt lat="47.3351" lon="4.98692">
        <ele>263.9</ele>
        <time>2015-12-08T14:12:28Z</time>
      </trkpt>
      <trkpt lat="47.33516" lon="4.98682">
        <ele>263.4</ele>
        <time>2015-12-08T14:12:36Z</time>
      </trkpt>
      <trkpt lat="47.33523" lon="4.98672">
        <ele>263</ele>
        <time>2015-12-08T14:12:44Z</time>
      </trkpt>
      <trkpt lat="47.33528" lon="4.98661">
        <ele>262.4</ele>
        <time>2015-12-08T14:12:51Z</time>
      </trkpt>
      <trkpt lat="47.33533" lon="4.98649">
        <ele>261.9</ele>
        <time>2015-12-08T14:12:59Z</time>
      </trkpt>
      <trkpt lat="47.3354" lon="4.98641">
        <ele>261.7</ele>
        <time>2015-12-08T14:13:18Z</time>
      </trkpt>
      <trkpt lat="47.33546" lon="4.9863">
        <ele>261.3</ele>
        <time>2015-12-08T14:13:25Z</time>
      </trkpt>
      <trkpt lat="47.33552" lon="4.9862">
        <ele>261</ele>
        <time>2015-12-08T14:13:34Z</time>
      </trkpt>
      <trkpt lat="47.33559" lon="4.98612">
        <ele>260.8</ele>
        <time>2015-12-08T14:13:44Z</time>
      </trkpt>
      <trkpt lat="47.33563" lon="4.98599">
        <ele>260.3</ele>
        <time>2015-12-08T14:18:38Z</time>
      </trkpt>
      <trkpt lat="47.3357" lon="4.98589">
        <ele>259.9</ele>
        <time>2015-12-08T14:18:49Z</time>
      </trkpt>
      <trkpt lat="47.33576" lon="4.98579">
        <ele>259.7</ele>
        <time>2015-12-08T14:19:00Z</time>
      </trkpt>
      <trkpt lat="47.33583" lon="4.9857">
        <ele>259.6</ele>
        <time>2015-12-08T14:19:08Z</time>
      </trkpt>
      <trkpt lat="47.33593" lon="4.98568">
        <ele>259.8</ele>
        <time>2015-12-08T14:19:16Z</time>
      </trkpt>
      <trkpt lat="47.33602" lon="4.98563">
        <ele>259.9</ele>
        <time>2015-12-08T14:19:31Z</time>
      </trkpt>
      <trkpt lat="47.33603" lon="4.9855">
        <ele>259.8</ele>
        <time>2015-12-08T14:20:50Z</time>
      </trkpt>
      <trkpt lat="47.33603" lon="4.98535">
        <ele>259.6</ele>
        <time>2015-12-08T14:21:04Z</time>
      </trkpt>
      <trkpt lat="47.33611" lon="4.98526">
        <ele>259.9</ele>
        <time>2015-12-08T14:21:11Z</time>
      </trkpt>
      <trkpt lat="47.33618" lon="4.98516">
        <ele>260.2</ele>
        <time>2015-12-08T14:21:20Z</time>
      </trkpt>
      <trkpt lat="47.33625" lon="4.98507">
        <ele>260.5</ele>
        <time>2015-12-08T14:21:30Z</time>
      </trkpt>
      <trkpt lat="47.33633" lon="4.98498">
        <ele>261.1</ele>
        <time>2015-12-08T14:21:42Z</time>
      </trkpt>
      <trkpt lat="47.3364" lon="4.98488">
        <ele>261.9</ele>
        <time>2015-12-08T14:21:51Z</time>
      </trkpt>
      <trkpt lat="47.33649" lon="4.98483">
        <ele>262.7</ele>
        <time>2015-12-08T14:21:58Z</time>
      </trkpt>
      <trkpt lat="47.33654" lon="4.98472">
        <ele>263.5</ele>
        <time>2015-12-08T14:22:11Z</time>
      </trkpt>
      <trkpt lat="47.33659" lon="4.9846">
        <ele>264.4</ele>
        <time>2015-12-08T14:22:17Z</time>
      </trkpt>
      <trkpt lat="47.33661" lon="4.98446">
        <ele>265.2</ele>
        <time>2015-12-08T14:22:26Z</time>
      </trkpt>
      <trkpt lat="47.33667" lon="4.98436">
        <ele>266.2</ele>
        <time>2015-12-08T14:22:37Z</time>
      </trkpt>
      <trkpt lat="47.33676" lon="4.98429">
        <ele>267.8</ele>
        <time>2015-12-08T14:22:50Z</time>
      </trkpt>
      <trkpt lat="47.33685" lon="4.98426">
        <ele>269.2</ele>
        <time>2015-12-08T14:23:04Z</time>
      </trkpt>
      <trkpt lat="47.33694" lon="4.98424">
        <ele>270.7</ele>
        <time>2015-12-08T14:23:17Z</time>
      </trkpt>
      <trkpt lat="47.33702" lon="4.98418">
        <ele>272.1</ele>
        <time>2015-12-08T14:23:27Z</time>
      </trkpt>
      <trkpt lat="47.33712" lon="4.98421">
        <ele>273.3</ele>
        <time>2015-12-08T14:23:39Z</time>
      </trkpt>
      <trkpt lat="47.33721" lon="4.9842">
        <ele>274.7</ele>
        <time>2015-12-08T14:23:50Z</time>
      </trkpt>
      <trkpt lat="47.3373" lon="4.98414">
        <ele>276.1</ele>
        <time>2015-12-08T14:23:59Z</time>
      </trkpt>
      <trkpt lat="47.33736" lon="4.98403">
        <ele>277.1</ele>
        <time>2015-12-08T14:24:09Z</time>
      </trkpt>
      <trkpt lat="47.3374" lon="4.98391">
        <ele>277.8</ele>
        <time>2015-12-08T14:24:20Z</time>
      </trkpt>
      <trkpt lat="47.33743" lon="4.98378">
        <ele>278.3</ele>
        <time>2015-12-08T14:24:29Z</time>
      </trkpt>
      <trkpt lat="47.33747" lon="4.98366">
        <ele>279.1</ele>
        <time>2015-12-08T14:24:38Z</time>
      </trkpt>
      <trkpt lat="47.33752" lon="4.98354">
        <ele>280.5</ele>
        <time>2015-12-08T14:24:54Z</time>
      </trkpt>
      <trkpt lat="47.33755" lon="4.9834">
        <ele>281.6</ele>
        <time>2015-12-08T14:25:03Z</time>
      </trkpt>
      <trkpt lat="47.33759" lon="4.98327">
        <ele>282.8</ele>
        <time>2015-12-08T14:25:13Z</time>
      </trkpt>
      <trkpt lat="47.33761" lon="4.98313">
        <ele>283.4</ele>
        <time>2015-12-08T14:25:24Z</time>
      </trkpt>
      <trkpt lat="47.33766" lon="4.98301">
        <ele>284.7</ele>
        <time>2015-12-08T14:25:33Z</time>
      </trkpt>
      <trkpt lat="47.33771" lon="4.98288">
        <ele>286</ele>
        <time>2015-12-08T14:25:42Z</time>
      </trkpt>
      <trkpt lat="47.33776" lon="4.98276">
        <ele>287.2</ele>
        <time>2015-12-08T14:25:51Z</time>
      </trkpt>
      <trkpt lat="47.33779" lon="4.98263">
        <ele>288</ele>
        <time>2015-12-08T14:26:00Z</time>
      </trkpt>
      <trkpt lat="47.33784" lon="4.9825">
        <ele>289.2</ele>
        <time>2015-12-08T14:26:10Z</time>
      </trkpt>
      <trkpt lat="47.33788" lon="4.98238">
        <ele>290.4</ele>
        <time>2015-12-08T14:26:23Z</time>
      </trkpt>
      <trkpt lat="47.33791" lon="4.98225">
        <ele>291.3</ele>
        <time>2015-12-08T14:26:34Z</time>
      </trkpt>
      <trkpt lat="47.33796" lon="4.98213">
        <ele>292.7</ele>
        <time>2015-12-08T14:27:19Z</time>
      </trkpt>
      <trkpt lat="47.33802" lon="4.98204">
        <ele>294.6</ele>
        <time>2015-12-08T14:27:35Z</time>
      </trkpt>
      <trkpt lat="47.33811" lon="4.982">
        <ele>297.2</ele>
        <time>2015-12-08T14:28:05Z</time>
      </trkpt>
      <trkpt lat="47.33821" lon="4.98203">
        <ele>299.9</ele>
        <time>2015-12-08T14:28:22Z</time>
      </trkpt>
      <trkpt lat="47.3383" lon="4.98205">
        <ele>302.4</ele>
        <time>2015-12-08T14:28:44Z</time>
      </trkpt>
      <trkpt lat="47.33839" lon="4.98206">
        <ele>305</ele>
        <time>2015-12-08T14:29:24Z</time>
      </trkpt>
      <trkpt lat="47.33848" lon="4.98207">
        <ele>307.5</ele>
        <time>2015-12-08T14:29:49Z</time>
      </trkpt>
      <trkpt lat="47.33858" lon="4.98207">
        <ele>310.2</ele>
        <time>2015-12-08T14:29:59Z</time>
      </trkpt>
      <trkpt lat="47.33867" lon="4.98206">
        <ele>312.9</ele>
        <time>2015-12-08T14:30:48Z</time>
      </trkpt>
      <trkpt lat="47.33877" lon="4.98208">
        <ele>315.5</ele>
        <time>2015-12-08T14:31:14Z</time>
      </trkpt>
      <trkpt lat="47.33886" lon="4.9821">
        <ele>318.1</ele>
        <time>2015-12-08T14:31:30Z</time>
      </trkpt>
      <trkpt lat="47.33895" lon="4.98213">
        <ele>320.6</ele>
        <time>2015-12-08T14:31:45Z</time>
      </trkpt>
      <trkpt lat="47.33905" lon="4.98214">
        <ele>323.1</ele>
        <time>2015-12-08T14:32:15Z</time>
      </trkpt>
      <trkpt lat="47.33913" lon="4.98217">
        <ele>325.5</ele>
        <time>2015-12-08T14:33:05Z</time>
      </trkpt>
      <trkpt lat="47.33923" lon="4.98216">
        <ele>327.8</ele>
        <time>2015-12-08T14:33:15Z</time>
      </trkpt>
      <trkpt lat="47.33932" lon="4.98216">
        <ele>329.7</ele>
        <time>2015-12-08T14:33:23Z</time>
      </trkpt>
      <trkpt lat="47.33942" lon="4.98215">
        <ele>331.7</ele>
        <time>2015-12-08T14:34:31Z</time>
      </trkpt>
      <trkpt lat="47.3394" lon="4.98202">
        <ele>331.5</ele>
        <time>2015-12-08T14:34:55Z</time>
      </trkpt>
      <trkpt lat="47.33934" lon="4.98192">
        <ele>330.4</ele>
        <time>2015-12-08T14:35:05Z</time>
      </trkpt>
      <trkpt lat="47.33927" lon="4.9818">
        <ele>329.1</ele>
        <time>2015-12-08T14:35:23Z</time>
      </trkpt>
      <trkpt lat="47.33923" lon="4.98168">
        <ele>328.3</ele>
        <time>2015-12-08T14:35:34Z</time>
      </trkpt>
      <trkpt lat="47.33918" lon="4.98155">
        <ele>327.6</ele>
        <time>2015-12-08T14:35:46Z</time>
      </trkpt>
      <trkpt lat="47.33913" lon="4.98143">
        <ele>326.7</ele>
        <time>2015-12-08T14:35:56Z</time>
      </trkpt>
      <trkpt lat="47.33907" lon="4.98133">
        <ele>325.1</ele>
        <time>2015-12-08T14:36:06Z</time>
      </trkpt>
      <trkpt lat="47.33904" lon="4.9812">
        <ele>324.6</ele>
        <time>2015-12-08T14:36:13Z</time>
      </trkpt>
      <trkpt lat="47.33904" lon="4.98106">
        <ele>324.9</ele>
        <time>2015-12-08T14:36:27Z</time>
      </trkpt>
      <trkpt lat="47.33899" lon="4.98094">
        <ele>324.1</ele>
        <time>2015-12-08T14:36:38Z</time>
      </trkpt>
      <trkpt lat="47.33896" lon="4.9808">
        <ele>323.5</ele>
        <time>2015-12-08T14:37:30Z</time>
      </trkpt>
      <trkpt lat="47.33895" lon="4.98066">
        <ele>322.6</ele>
        <time>2015-12-08T14:37:38Z</time>
      </trkpt>
      <trkpt lat="47.33892" lon="4.98054">
        <ele>321.4</ele>
        <time>2015-12-08T14:37:51Z</time>
      </trkpt>
      <trkpt lat="47.33891" lon="4.98039">
        <ele>320.7</ele>
        <time>2015-12-08T14:38:00Z</time>
      </trkpt>
      <trkpt lat="47.3389" lon="4.98026">
        <ele>320.1</ele>
        <time>2015-12-08T14:38:09Z</time>
      </trkpt>
      <trkpt lat="47.33891" lon="4.98012">
        <ele>319.8</ele>
        <time>2015-12-08T14:38:17Z</time>
      </trkpt>
      <trkpt lat="47.3389" lon="4.97998">
        <ele>319</ele>
        <time>2015-12-08T14:38:25Z</time>
      </trkpt>
      <trkpt lat="47.33893" lon="4.97985">
        <ele>317.9</ele>
        <time>2015-12-08T14:38:38Z</time>
      </trkpt>
      <trkpt lat="47.33898" lon="4.97973">
        <ele>317.4</ele>
        <time>2015-12-08T14:38:48Z</time>
      </trkpt>
      <trkpt lat="47.339" lon="4.97959">
        <ele>316.1</ele>
        <time>2015-12-08T14:38:55Z</time>
      </trkpt>
      <trkpt lat="47.33905" lon="4.97948">
        <ele>315.6</ele>
        <time>2015-12-08T14:39:02Z</time>
      </trkpt>
      <trkpt lat="47.3391" lon="4.97936">
        <ele>314.8</ele>
        <time>2015-12-08T14:39:11Z</time>
      </trkpt>
      <trkpt lat="47.33916" lon="4.97925">
        <ele>314</ele>
        <time>2015-12-08T14:39:20Z</time>
      </trkpt>
      <trkpt lat="47.33923" lon="4.97915">
        <ele>313</ele>
        <time>2015-12-08T14:39:29Z</time>
      </trkpt>
      <trkpt lat="47.3393" lon="4.97906">
        <ele>312.4</ele>
        <time>2015-12-08T14:39:37Z</time>
      </trkpt>
      <trkpt lat="47.33936" lon="4.97896">
        <ele>311.8</ele>
        <time>2015-12-08T14:39:46Z</time>
      </trkpt>
      <trkpt lat="47.33943" lon="4.97885">
        <ele>311.2</ele>
        <time>2015-12-08T14:39:57Z</time>
      </trkpt>
      <trkpt lat="47.33951" lon="4.9788">
        <ele>311.8</ele>
        <time>2015-12-08T14:40:17Z</time>
      </trkpt>
      <trkpt lat="47.3396" lon="4.9788">
        <ele>312.9</ele>
        <time>2015-12-08T14:43:03Z</time>
      </trkpt>
      <trkpt lat="47.3397" lon="4.97876">
        <ele>313.8</ele>
        <time>2015-12-08T14:48:49Z</time>
      </trkpt>
      <trkpt lat="47.3398" lon="4.97875">
        <ele>315.2</ele>
        <time>2015-12-08T14:49:08Z</time>
      </trkpt>
      <trkpt lat="47.33986" lon="4.97866">
        <ele>315.7</ele>
        <time>2015-12-08T14:49:26Z</time>
      </trkpt>
      <trkpt lat="47.33994" lon="4.97859">
        <ele>316.6</ele>
        <time>2015-12-08T14:49:48Z</time>
      </trkpt>
      <trkpt lat="47.34001" lon="4.97851">
        <ele>317.7</ele>
        <time>2015-12-08T14:50:08Z</time>
      </trkpt>
      <trkpt lat="47.3401" lon="4.97848">
        <ele>319.6</ele>
        <time>2015-12-08T14:50:23Z</time>
      </trkpt>
      <trkpt lat="47.34017" lon="4.97838">
        <ele>320.8</ele>
        <time>2015-12-08T14:50:46Z</time>
      </trkpt>
      <trkpt lat="47.34023" lon="4.97829">
        <ele>322.1</ele>
        <time>2015-12-08T14:50:59Z</time>
      </trkpt>
      <trkpt lat="47.3403" lon="4.9782">
        <ele>323.5</ele>
        <time>2015-12-08T14:51:12Z</time>
      </trkpt>
      <trkpt lat="47.3403" lon="4.97806">
        <ele>323.5</ele>
        <time>2015-12-08T14:51:23Z</time>
      </trkpt>
      <trkpt lat="47.34027" lon="4.97792">
        <ele>323</ele>
        <time>2015-12-08T14:51:34Z</time>
      </trkpt>
      <trkpt lat="47.34024" lon="4.97779">
        <ele>322.6</ele>
        <time>2015-12-08T14:51:44Z</time>
      </trkpt>
      <trkpt lat="47.34025" lon="4.97765">
        <ele>322.8</ele>
        <time>2015-12-08T14:51:54Z</time>
      </trkpt>
      <trkpt lat="47.34024" lon="4.97752">
        <ele>322.8</ele>
        <time>2015-12-08T14:52:04Z</time>
      </trkpt>
      <trkpt lat="47.34023" lon="4.97739">
        <ele>321.5</ele>
        <time>2015-12-08T14:52:13Z</time>
      </trkpt>
      <trkpt lat="47.34023" lon="4.97725">
        <ele>320.4</ele>
        <time>2015-12-08T14:52:30Z</time>
      </trkpt>
      <trkpt lat="47.34025" lon="4.97713">
        <ele>319.6</ele>
        <time>2015-12-08T14:52:39Z</time>
      </trkpt>
      <trkpt lat="47.34028" lon="4.97699">
        <ele>318.6</ele>
        <time>2015-12-08T14:52:51Z</time>
      </trkpt>
      <trkpt lat="47.34032" lon="4.97685">
        <ele>317.8</ele>
        <time>2015-12-08T14:53:05Z</time>
      </trkpt>
      <trkpt lat="47.34034" lon="4.97672">
        <ele>316.8</ele>
        <time>2015-12-08T14:53:16Z</time>
      </trkpt>
      <trkpt lat="47.34041" lon="4.97661">
        <ele>315.3</ele>
        <time>2015-12-08T14:53:28Z</time>
      </trkpt>
      <trkpt lat="47.34042" lon="4.97647">
        <ele>312.3</ele>
        <time>2015-12-08T14:53:42Z</time>
      </trkpt>
      <trkpt lat="47.34048" lon="4.97637">
        <ele>310.3</ele>
        <time>2015-12-08T14:53:52Z</time>
      </trkpt>
      <trkpt lat="47.34055" lon="4.97629">
        <ele>309.1</ele>
        <time>2015-12-08T14:54:08Z</time>
      </trkpt>
      <trkpt lat="47.34064" lon="4.97623">
        <ele>308.2</ele>
        <time>2015-12-08T14:54:13Z</time>
      </trkpt>
      <trkpt lat="47.34072" lon="4.97617">
        <ele>307.3</ele>
        <time>2015-12-08T14:54:20Z</time>
      </trkpt>
      <trkpt lat="47.3408" lon="4.97609">
        <ele>306</ele>
        <time>2015-12-08T14:54:29Z</time>
      </trkpt>
      <trkpt lat="47.34087" lon="4.97601">
        <ele>304.9</ele>
        <time>2015-12-08T14:54:39Z</time>
      </trkpt>
      <trkpt lat="47.34097" lon="4.97596">
        <ele>304</ele>
        <time>2015-12-08T14:54:48Z</time>
      </trkpt>
      <trkpt lat="47.34106" lon="4.97593">
        <ele>304.1</ele>
        <time>2015-12-08T14:54:57Z</time>
      </trkpt>
      <trkpt lat="47.34115" lon="4.97589">
        <ele>304.1</ele>
        <time>2015-12-08T14:55:05Z</time>
      </trkpt>
      <trkpt lat="47.34123" lon="4.97582">
        <ele>303.8</ele>
        <time>2015-12-08T14:55:15Z</time>
      </trkpt>
      <trkpt lat="47.3413" lon="4.97573">
        <ele>304.2</ele>
        <time>2015-12-08T14:55:34Z</time>
      </trkpt>
      <trkpt lat="47.34138" lon="4.97566">
        <ele>305</ele>
        <time>2015-12-08T14:55:46Z</time>
      </trkpt>
      <trkpt lat="47.34147" lon="4.97561">
        <ele>306.2</ele>
        <time>2015-12-08T14:55:54Z</time>
      </trkpt>
      <trkpt lat="47.34157" lon="4.9756">
        <ele>307.6</ele>
        <time>2015-12-08T14:56:03Z</time>
      </trkpt>
      <trkpt lat="47.34167" lon="4.97556">
        <ele>309</ele>
        <time>2015-12-08T14:56:10Z</time>
      </trkpt>
      <trkpt lat="47.34176" lon="4.97553">
        <ele>311.4</ele>
        <time>2015-12-08T14:56:26Z</time>
      </trkpt>
      <trkpt lat="47.34185" lon="4.97551">
        <ele>313.6</ele>
        <time>2015-12-08T14:56:39Z</time>
      </trkpt>
      <trkpt lat="47.34192" lon="4.97543">
        <ele>315.3</ele>
        <time>2015-12-08T14:56:58Z</time>
      </trkpt>
      <trkpt lat="47.34187" lon="4.97531">
        <ele>314.2</ele>
        <time>2015-12-08T14:57:14Z</time>
      </trkpt>
      <trkpt lat="47.34179" lon="4.97524">
        <ele>312.6</ele>
        <time>2015-12-08T14:57:29Z</time>
      </trkpt>
      <trkpt lat="47.34169" lon="4.97521">
        <ele>310.8</ele>
        <time>2015-12-08T14:57:38Z</time>
      </trkpt>
      <trkpt lat="47.34161" lon="4.97513">
        <ele>309.3</ele>
        <time>2015-12-08T14:57:45Z</time>
      </trkpt>
      <trkpt lat="47.34153" lon="4.97507">
        <ele>307.7</ele>
        <time>2015-12-08T14:57:51Z</time>
      </trkpt>
      <trkpt lat="47.34144" lon="4.97503">
        <ele>305.5</ele>
        <time>2015-12-08T14:57:59Z</time>
      </trkpt>
      <trkpt lat="47.34134" lon="4.97499">
        <ele>303.2</ele>
        <time>2015-12-08T14:58:10Z</time>
      </trkpt>
      <trkpt lat="47.34125" lon="4.97495">
        <ele>301.2</ele>
        <time>2015-12-08T14:58:21Z</time>
      </trkpt>
      <trkpt lat="47.34117" lon="4.97489">
        <ele>299.4</ele>
        <time>2015-12-08T14:58:31Z</time>
      </trkpt>
      <trkpt lat="47.34107" lon="4.97485">
        <ele>297.4</ele>
        <time>2015-12-08T14:58:42Z</time>
      </trkpt>
      <trkpt lat="47.34098" lon="4.97482">
        <ele>295.5</ele>
        <time>2015-12-08T14:58:51Z</time>
      </trkpt>
      <trkpt lat="47.34089" lon="4.97482">
        <ele>293.3</ele>
        <time>2015-12-08T14:59:01Z</time>
      </trkpt>
      <trkpt lat="47.34079" lon="4.97482">
        <ele>291.6</ele>
        <time>2015-12-08T14:59:09Z</time>
      </trkpt>
      <trkpt lat="47.3407" lon="4.97479">
        <ele>290.4</ele>
        <time>2015-12-08T14:59:18Z</time>
      </trkpt>
      <trkpt lat="47.34061" lon="4.97476">
        <ele>289.1</ele>
        <time>2015-12-08T14:59:28Z</time>
      </trkpt>
      <trkpt lat="47.34051" lon="4.97481">
        <ele>287.9</ele>
        <time>2015-12-08T14:59:40Z</time>
      </trkpt>
      <trkpt lat="47.34043" lon="4.97487">
        <ele>286.8</ele>
        <time>2015-12-08T14:59:49Z</time>
      </trkpt>
      <trkpt lat="47.34035" lon="4.97495">
        <ele>286.2</ele>
        <time>2015-12-08T14:59:57Z</time>
      </trkpt>
      <trkpt lat="47.34028" lon="4.97502">
        <ele>285.8</ele>
        <time>2015-12-08T15:00:05Z</time>
      </trkpt>
      <trkpt lat="47.34021" lon="4.97513">
        <ele>286.4</ele>
        <time>2015-12-08T15:00:17Z</time>
      </trkpt>
      <trkpt lat="47.34013" lon="4.97521">
        <ele>287</ele>
        <time>2015-12-08T15:00:25Z</time>
      </trkpt>
      <trkpt lat="47.34004" lon="4.97522">
        <ele>286.3</ele>
        <time>2015-12-08T15:00:34Z</time>
      </trkpt>
      <trkpt lat="47.33996" lon="4.97512">
        <ele>283.8</ele>
        <time>2015-12-08T15:00:43Z</time>
      </trkpt>
      <trkpt lat="47.33992" lon="4.975">
        <ele>281.1</ele>
        <time>2015-12-08T15:00:52Z</time>
      </trkpt>
      <trkpt lat="47.33994" lon="4.97486">
        <ele>280.3</ele>
        <time>2015-12-08T15:01:04Z</time>
      </trkpt>
      <trkpt lat="47.33998" lon="4.97473">
        <ele>279.6</ele>
        <time>2015-12-08T15:01:13Z</time>
      </trkpt>
      <trkpt lat="47.34" lon="4.9746">
        <ele>278.7</ele>
        <time>2015-12-08T15:01:23Z</time>
      </trkpt>
      <trkpt lat="47.34006" lon="4.97448">
        <ele>278.5</ele>
        <time>2015-12-08T15:01:33Z</time>
      </trkpt>
      <trkpt lat="47.34" lon="4.97437">
        <ele>276.2</ele>
        <time>2015-12-08T15:01:49Z</time>
      </trkpt>
      <trkpt lat="47.33993" lon="4.97429">
        <ele>273.9</ele>
        <time>2015-12-08T15:01:58Z</time>
      </trkpt>
      <trkpt lat="47.33984" lon="4.97421">
        <ele>271.5</ele>
        <time>2015-12-08T15:02:08Z</time>
      </trkpt>
      <trkpt lat="47.33976" lon="4.97412">
        <ele>269.4</ele>
        <time>2015-12-08T15:02:18Z</time>
      </trkpt>
      <trkpt lat="47.33968" lon="4.97407">
        <ele>267.7</ele>
        <time>2015-12-08T15:02:28Z</time>
      </trkpt>
      <trkpt lat="47.33961" lon="4.97398">
        <ele>265.9</ele>
        <time>2015-12-08T15:02:45Z</time>
      </trkpt>
      <trkpt lat="47.33951" lon="4.97396">
        <ele>264.2</ele>
        <time>2015-12-08T15:02:57Z</time>
      </trkpt>
      <trkpt lat="47.33943" lon="4.9739">
        <ele>262.5</ele>
        <time>2015-12-08T15:03:12Z</time>
      </trkpt>
      <trkpt lat="47.33934" lon="4.97387">
        <ele>260.9</ele>
        <time>2015-12-08T15:03:56Z</time>
      </trkpt>
      <trkpt lat="47.33927" lon="4.97378">
        <ele>259.2</ele>
        <time>2015-12-08T15:04:07Z</time>
      </trkpt>
      <trkpt lat="47.3392" lon="4.97368">
        <ele>257.7</ele>
        <time>2015-12-08T15:04:17Z</time>
      </trkpt>
      <trkpt lat="47.33913" lon="4.97358">
        <ele>256.6</ele>
        <time>2015-12-08T15:04:27Z</time>
      </trkpt>
      <trkpt lat="47.33906" lon="4.97349">
        <ele>255.9</ele>
        <time>2015-12-08T15:04:37Z</time>
      </trkpt>
      <trkpt lat="47.33898" lon="4.97341">
        <ele>255.1</ele>
        <time>2015-12-08T15:04:47Z</time>
      </trkpt>
      <trkpt lat="47.33891" lon="4.9735">
        <ele>254.9</ele>
        <time>2015-12-08T15:05:02Z</time>
      </trkpt>
      <trkpt lat="47.33883" lon="4.97359">
        <ele>254.7</ele>
        <time>2015-12-08T15:05:14Z</time>
      </trkpt>
      <trkpt lat="47.33873" lon="4.9736">
        <ele>254.2</ele>
        <time>2015-12-08T15:05:21Z</time>
      </trkpt>
      <trkpt lat="47.33863" lon="4.97362">
        <ele>253.6</ele>
        <time>2015-12-08T15:05:29Z</time>
      </trkpt>
      <trkpt lat="47.33854" lon="4.9736">
        <ele>252.9</ele>
        <time>2015-12-08T15:05:37Z</time>
      </trkpt>
      <trkpt lat="47.33844" lon="4.97358">
        <ele>252.2</ele>
        <time>2015-12-08T15:05:43Z</time>
      </trkpt>
      <trkpt lat="47.33835" lon="4.97358">
        <ele>251.7</ele>
        <time>2015-12-08T15:05:50Z</time>
      </trkpt>
      <trkpt lat="47.33825" lon="4.97358">
        <ele>251.4</ele>
        <time>2015-12-08T15:05:59Z</time>
      </trkpt>
      <trkpt lat="47.33815" lon="4.97355">
        <ele>251.1</ele>
        <time>2015-12-08T15:06:07Z</time>
      </trkpt>
      <trkpt lat="47.33806" lon="4.97353">
        <ele>250.9</ele>
        <time>2015-12-08T15:06:15Z</time>
      </trkpt>
      <trkpt lat="47.33797" lon="4.97353">
        <ele>250.7</ele>
        <time>2015-12-08T15:06:24Z</time>
      </trkpt>
      <trkpt lat="47.33788" lon="4.97357">
        <ele>250.6</ele>
        <time>2015-12-08T15:06:35Z</time>
      </trkpt>
      <trkpt lat="47.33778" lon="4.97356">
        <ele>250.3</ele>
        <time>2015-12-08T15:06:43Z</time>
      </trkpt>
      <trkpt lat="47.33769" lon="4.9736">
        <ele>250.1</ele>
        <time>2015-12-08T15:06:50Z</time>
      </trkpt>
      <trkpt lat="47.3376" lon="4.97363">
        <ele>249.9</ele>
        <time>2015-12-08T15:06:57Z</time>
      </trkpt>
      <trkpt lat="47.33752" lon="4.97369">
        <ele>249.6</ele>
        <time>2015-12-08T15:07:06Z</time>
      </trkpt>
      <trkpt lat="47.33744" lon="4.97378">
        <ele>249.4</ele>
        <time>2015-12-08T15:07:18Z</time>
      </trkpt>
      <trkpt lat="47.33739" lon="4.9739">
        <ele>249.1</ele>
        <time>2015-12-08T15:07:24Z</time>
      </trkpt>
      <trkpt lat="47.33733" lon="4.97402">
        <ele>248.9</ele>
        <time>2015-12-08T15:07:33Z</time>
      </trkpt>
      <trkpt lat="47.3373" lon="4.97414">
        <ele>248.8</ele>
        <time>2015-12-08T15:07:41Z</time>
      </trkpt>
      <trkpt lat="47.33725" lon="4.97427">
        <ele>248.5</ele>
        <time>2015-12-08T15:07:49Z</time>
      </trkpt>
      <trkpt lat="47.33721" lon="4.9744">
        <ele>248.3</ele>
        <time>2015-12-08T15:07:56Z</time>
      </trkpt>
      <trkpt lat="47.33716" lon="4.97451">
        <ele>248</ele>
        <time>2015-12-08T15:08:03Z</time>
      </trkpt>
      <trkpt lat="47.3371" lon="4.97462">
        <ele>247.7</ele>
        <time>2015-12-08T15:08:11Z</time>
      </trkpt>
      <trkpt lat="47.33703" lon="4.97472">
        <ele>247.4</ele>
        <time>2015-12-08T15:08:19Z</time>
      </trkpt>
      <trkpt lat="47.33697" lon="4.97482">
        <ele>247.1</ele>
        <time>2015-12-08T15:08:30Z</time>
      </trkpt>
      <trkpt lat="47.33692" lon="4.97493">
        <ele>246.7</ele>
        <time>2015-12-08T15:08:37Z</time>
      </trkpt>
      <trkpt lat="47.33686" lon="4.97505">
        <ele>246.4</ele>
        <time>2015-12-08T15:08:49Z</time>
      </trkpt>
      <trkpt lat="47.33681" lon="4.97516">
        <ele>246.3</ele>
        <time>2015-12-08T15:08:57Z</time>
      </trkpt>
      <trkpt lat="47.33675" lon="4.97527">
        <ele>246.1</ele>
        <time>2015-12-08T15:09:03Z</time>
      </trkpt>
      <trkpt lat="47.33669" lon="4.97539">
        <ele>246</ele>
        <time>2015-12-08T15:09:10Z</time>
      </trkpt>
      <trkpt lat="47.33662" lon="4.9755">
        <ele>246</ele>
        <time>2015-12-08T15:09:20Z</time>
      </trkpt>
      <trkpt lat="47.33657" lon="4.97561">
        <ele>246</ele>
        <time>2015-12-08T15:09:31Z</time>
      </trkpt>
      <trkpt lat="47.33651" lon="4.97574">
        <ele>246</ele>
        <time>2015-12-08T15:09:38Z</time>
      </trkpt>
      <trkpt lat="47.33646" lon="4.97586">
        <ele>246</ele>
        <time>2015-12-08T15:09:46Z</time>
      </trkpt>
      <trkpt lat="47.3364" lon="4.97597">
        <ele>246</ele>
        <time>2015-12-08T15:09:54Z</time>
      </trkpt>
      <trkpt lat="47.33635" lon="4.97609">
        <ele>246</ele>
        <time>2015-12-08T15:10:03Z</time>
      </trkpt>
      <trkpt lat="47.3363" lon="4.97622">
        <ele>246</ele>
        <time>2015-12-08T15:10:11Z</time>
      </trkpt>
      <trkpt lat="47.33625" lon="4.97634">
        <ele>246</ele>
        <time>2015-12-08T15:10:19Z</time>
      </trkpt>
      <trkpt lat="47.3362" lon="4.97646">
        <ele>246</ele>
        <time>2015-12-08T15:10:28Z</time>
      </trkpt>
      <trkpt lat="47.33615" lon="4.97659">
        <ele>246</ele>
        <time>2015-12-08T15:10:34Z</time>
      </trkpt>
      <trkpt lat="47.33609" lon="4.97671">
        <ele>246</ele>
        <time>2015-12-08T15:10:40Z</time>
      </trkpt>
      <trkpt lat="47.33604" lon="4.97682">
        <ele>245.9</ele>
        <time>2015-12-08T15:10:46Z</time>
      </trkpt>
      <trkpt lat="47.33599" lon="4.97694">
        <ele>245.8</ele>
        <time>2015-12-08T15:10:53Z</time>
      </trkpt>
      <trkpt lat="47.33595" lon="4.97706">
        <ele>245.7</ele>
        <time>2015-12-08T15:11:00Z</time>
      </trkpt>
      <trkpt lat="47.33591" lon="4.97719">
        <ele>245.5</ele>
        <time>2015-12-08T15:11:08Z</time>
      </trkpt>
      <trkpt lat="47.33587" lon="4.97732">
        <ele>245.3</ele>
        <time>2015-12-08T15:11:16Z</time>
      </trkpt>
      <trkpt lat="47.33584" lon="4.97745">
        <ele>245.1</ele>
        <time>2015-12-08T15:11:24Z</time>
      </trkpt>
      <trkpt lat="47.3358" lon="4.97758">
        <ele>245.1</ele>
        <time>2015-12-08T15:11:34Z</time>
      </trkpt>
      <trkpt lat="47.33576" lon="4.97771">
        <ele>245.2</ele>
        <time>2015-12-08T15:11:40Z</time>
      </trkpt>
      <trkpt lat="47.33572" lon="4.97784">
        <ele>245.4</ele>
        <time>2015-12-08T15:11:48Z</time>
      </trkpt>
      <trkpt lat="47.33568" lon="4.97796">
        <ele>245.4</ele>
        <time>2015-12-08T15:12:00Z</time>
      </trkpt>
      <trkpt lat="47.33565" lon="4.9781">
        <ele>245.6</ele>
        <time>2015-12-08T15:12:08Z</time>
      </trkpt>
      <trkpt lat="47.33562" lon="4.97825">
        <ele>245.7</ele>
        <time>2015-12-08T15:12:16Z</time>
      </trkpt>
      <trkpt lat="47.33557" lon="4.97838">
        <ele>245.7</ele>
        <time>2015-12-08T15:12:24Z</time>
      </trkpt>
      <trkpt lat="47.33553" lon="4.97851">
        <ele>245.6</ele>
        <time>2015-12-08T15:12:31Z</time>
      </trkpt>
      <trkpt lat="47.33547" lon="4.97862">
        <ele>245.6</ele>
        <time>2015-12-08T15:12:39Z</time>
      </trkpt>
      <trkpt lat="47.33542" lon="4.97875">
        <ele>245.5</ele>
        <time>2015-12-08T15:12:47Z</time>
      </trkpt>
      <trkpt lat="47.33538" lon="4.97888">
        <ele>245.5</ele>
        <time>2015-12-08T15:12:55Z</time>
      </trkpt>
      <trkpt lat="47.33534" lon="4.97901">
        <ele>245.4</ele>
        <time>2015-12-08T15:13:04Z</time>
      </trkpt>
      <trkpt lat="47.3353" lon="4.97912">
        <ele>245.4</ele>
        <time>2015-12-08T15:13:12Z</time>
      </trkpt>
      <trkpt lat="47.33525" lon="4.97925">
        <ele>245.3</ele>
        <time>2015-12-08T15:13:19Z</time>
      </trkpt>
      <trkpt lat="47.33519" lon="4.97938">
        <ele>245.3</ele>
        <time>2015-12-08T15:13:27Z</time>
      </trkpt>
      <trkpt lat="47.33513" lon="4.9795">
        <ele>245.2</ele>
        <time>2015-12-08T15:13:35Z</time>
      </trkpt>
      <trkpt lat="47.33509" lon="4.97962">
        <ele>245.2</ele>
        <time>2015-12-08T15:13:44Z</time>
      </trkpt>
      <trkpt lat="47.33503" lon="4.97973">
        <ele>245.1</ele>
        <time>2015-12-08T15:13:54Z</time>
      </trkpt>
      <trkpt lat="47.33498" lon="4.97985">
        <ele>245</ele>
        <time>2015-12-08T15:14:04Z</time>
      </trkpt>
      <trkpt lat="47.33495" lon="4.97998">
        <ele>244.9</ele>
        <time>2015-12-08T15:14:13Z</time>
      </trkpt>
      <trkpt lat="47.33491" lon="4.98011">
        <ele>244.8</ele>
        <time>2015-12-08T15:14:22Z</time>
      </trkpt>
      <trkpt lat="47.33488" lon="4.98024">
        <ele>244.7</ele>
        <time>2015-12-08T15:14:29Z</time>
      </trkpt>
      <trkpt lat="47.33485" lon="4.98037">
        <ele>244.5</ele>
        <time>2015-12-08T15:14:37Z</time>
      </trkpt>
      <trkpt lat="47.33483" lon="4.9805">
        <ele>244.4</ele>
        <time>2015-12-08T15:14:46Z</time>
      </trkpt>
      <trkpt lat="47.33481" lon="4.98064">
        <ele>244.4</ele>
        <time>2015-12-08T15:15:04Z</time>
      </trkpt>
      <trkpt lat="47.33476" lon="4.98077">
        <ele>244.3</ele>
        <time>2015-12-08T15:15:11Z</time>
      </trkpt>
      <trkpt lat="47.33475" lon="4.98091">
        <ele>244.5</ele>
        <time>2015-12-08T15:15:21Z</time>
      </trkpt>
      <trkpt lat="47.33471" lon="4.98104">
        <ele>244.8</ele>
        <time>2015-12-08T15:15:28Z</time>
      </trkpt>
      <trkpt lat="47.33464" lon="4.98114">
        <ele>245</ele>
        <time>2015-12-08T15:15:36Z</time>
      </trkpt>
      <trkpt lat="47.33456" lon="4.98122">
        <ele>245.2</ele>
        <time>2015-12-08T15:15:44Z</time>
      </trkpt>
      <trkpt lat="47.33448" lon="4.98129">
        <ele>245.2</ele>
        <time>2015-12-08T15:15:53Z</time>
      </trkpt>
      <trkpt lat="47.33441" lon="4.98139">
        <ele>245.3</ele>
        <time>2015-12-08T15:16:01Z</time>
      </trkpt>
      <trkpt lat="47.33433" lon="4.98147">
        <ele>245.2</ele>
        <time>2015-12-08T15:16:08Z</time>
      </trkpt>
      <trkpt lat="47.33425" lon="4.98154">
        <ele>245.1</ele>
        <time>2015-12-08T15:16:15Z</time>
      </trkpt>
      <trkpt lat="47.33418" lon="4.98164">
        <ele>245</ele>
        <time>2015-12-08T15:16:25Z</time>
      </trkpt>
      <trkpt lat="47.3341" lon="4.98173">
        <ele>245.1</ele>
        <time>2015-12-08T15:16:33Z</time>
      </trkpt>
      <trkpt lat="47.33402" lon="4.9818">
        <ele>245.2</ele>
        <time>2015-12-08T15:16:44Z</time>
      </trkpt>
      <trkpt lat="47.33392" lon="4.98181">
        <ele>245.1</ele>
        <time>2015-12-08T15:16:58Z</time>
      </trkpt>
      <trkpt lat="47.33384" lon="4.9819">
        <ele>245.1</ele>
        <time>2015-12-08T15:17:03Z</time>
      </trkpt>
      <trkpt lat="47.33377" lon="4.98199">
        <ele>245</ele>
        <time>2015-12-08T15:17:08Z</time>
      </trkpt>
      <trkpt lat="47.3337" lon="4.98208">
        <ele>244.9</ele>
        <time>2015-12-08T15:17:15Z</time>
      </trkpt>
      <trkpt lat="47.33362" lon="4.98214">
        <ele>244.6</ele>
        <time>2015-12-08T15:17:26Z</time>
      </trkpt>
      <trkpt lat="47.33354" lon="4.98224">
        <ele>244.3</ele>
        <time>2015-12-08T15:17:34Z</time>
      </trkpt>
      <trkpt lat="47.33348" lon="4.98235">
        <ele>243.9</ele>
        <time>2015-12-08T15:17:47Z</time>
      </trkpt>
      <trkpt lat="47.33342" lon="4.98244">
        <ele>243.5</ele>
        <time>2015-12-08T15:17:54Z</time>
      </trkpt>
      <trkpt lat="47.33336" lon="4.98256">
        <ele>243.2</ele>
        <time>2015-12-08T15:18:02Z</time>
      </trkpt>
      <trkpt lat="47.33331" lon="4.98268">
        <ele>243.2</ele>
        <time>2015-12-08T15:18:10Z</time>
      </trkpt>
      <trkpt lat="47.33328" lon="4.98282">
        <ele>243.3</ele>
        <time>2015-12-08T15:18:18Z</time>
      </trkpt>
      <trkpt lat="47.33325" lon="4.98294">
        <ele>243.5</ele>
        <time>2015-12-08T15:18:26Z</time>
      </trkpt>
      <trkpt lat="47.3332" lon="4.98308">
        <ele>243.6</ele>
        <time>2015-12-08T15:18:35Z</time>
      </trkpt>
      <trkpt lat="47.33322" lon="4.98321">
        <ele>243.7</ele>
        <time>2015-12-08T15:18:48Z</time>
      </trkpt>
      <trkpt lat="47.33319" lon="4.98335">
        <ele>243.9</ele>
        <time>2015-12-08T15:18:54Z</time>
      </trkpt>
      <trkpt lat="47.33317" lon="4.98349">
        <ele>244.1</ele>
        <time>2015-12-08T15:19:01Z</time>
      </trkpt>
      <trkpt lat="47.33315" lon="4.98363">
        <ele>244.4</ele>
        <time>2015-12-08T15:19:07Z</time>
      </trkpt>
      <trkpt lat="47.33312" lon="4.98377">
        <ele>244.6</ele>
        <time>2015-12-08T15:19:14Z</time>
      </trkpt>
      <trkpt lat="47.33311" lon="4.98392">
        <ele>245</ele>
        <time>2015-12-08T15:19:23Z</time>
      </trkpt>
      <trkpt lat="47.33309" lon="4.98405">
        <ele>245.2</ele>
        <time>2015-12-08T15:19:30Z</time>
      </trkpt>
      <trkpt lat="47.33308" lon="4.98419">
        <ele>245.4</ele>
        <time>2015-12-08T15:19:38Z</time>
      </trkpt>
      <trkpt lat="47.33305" lon="4.98431">
        <ele>245.3</ele>
        <time>2015-12-08T15:19:44Z</time>
      </trkpt>
      <trkpt lat="47.33301" lon="4.98445">
        <ele>245.2</ele>
        <time>2015-12-08T15:19:51Z</time>
      </trkpt>
      <trkpt lat="47.33296" lon="4.98459">
        <ele>245.1</ele>
        <time>2015-12-08T15:20:05Z</time>
      </trkpt>
      <trkpt lat="47.3329" lon="4.9847">
        <ele>245</ele>
        <time>2015-12-08T15:20:12Z</time>
      </trkpt>
      <trkpt lat="47.33284" lon="4.98481">
        <ele>244.8</ele>
        <time>2015-12-08T15:20:19Z</time>
      </trkpt>
      <trkpt lat="47.33278" lon="4.98491">
        <ele>244.7</ele>
        <time>2015-12-08T15:20:26Z</time>
      </trkpt>
      <trkpt lat="47.33272" lon="4.98502">
        <ele>244.5</ele>
        <time>2015-12-08T15:20:34Z</time>
      </trkpt>
      <trkpt lat="47.33267" lon="4.98514">
        <ele>244.4</ele>
        <time>2015-12-08T15:20:44Z</time>
      </trkpt>
      <trkpt lat="47.33261" lon="4.98525">
        <ele>244.3</ele>
        <time>2015-12-08T15:20:52Z</time>
      </trkpt>
      <trkpt lat="47.33255" lon="4.98536">
        <ele>244.1</ele>
        <time>2015-12-08T15:21:00Z</time>
      </trkpt>
      <trkpt lat="47.33249" lon="4.98546">
        <ele>244</ele>
        <time>2015-12-08T15:21:07Z</time>
      </trkpt>
      <trkpt lat="47.33242" lon="4.98558">
        <ele>244</ele>
        <time>2015-12-08T15:21:15Z</time>
      </trkpt>
      <trkpt lat="47.33236" lon="4.98568">
        <ele>244.1</ele>
        <time>2015-12-08T15:21:24Z</time>
      </trkpt>
      <trkpt lat="47.33229" lon="4.98579">
        <ele>244.2</ele>
        <time>2015-12-08T15:21:31Z</time>
      </trkpt>
      <trkpt lat="47.33222" lon="4.98589">
        <ele>244.4</ele>
        <time>2015-12-08T15:21:38Z</time>
      </trkpt>
      <trkpt lat="47.33216" lon="4.98599">
        <ele>244.7</ele>
        <time>2015-12-08T15:21:45Z</time>
      </trkpt>
      <trkpt lat="47.33209" lon="4.9861">
        <ele>245</ele>
        <time>2015-12-08T15:21:53Z</time>
      </trkpt>
      <trkpt lat="47.33204" lon="4.98621">
        <ele>245.2</ele>
        <time>2015-12-08T15:22:01Z</time>
      </trkpt>
      <trkpt lat="47.33198" lon="4.98631">
        <ele>245.4</ele>
        <time>2015-12-08T15:22:08Z</time>
      </trkpt>
      <trkpt lat="47.33192" lon="4.98642">
        <ele>245.6</ele>
        <time>2015-12-08T15:22:14Z</time>
      </trkpt>
      <trkpt lat="47.3319" lon="4.98655">
        <ele>245.8</ele>
        <time>2015-12-08T15:22:23Z</time>
      </trkpt>
      <trkpt lat="47.33186" lon="4.98668">
        <ele>246</ele>
        <time>2015-12-08T15:22:31Z</time>
      </trkpt>
      <trkpt lat="47.33181" lon="4.98679">
        <ele>246.1</ele>
        <time>2015-12-08T15:22:37Z</time>
      </trkpt>
      <trkpt lat="47.33177" lon="4.98693">
        <ele>246.2</ele>
        <time>2015-12-08T15:22:45Z</time>
      </trkpt>
      <trkpt lat="47.33174" lon="4.98707">
        <ele>246.2</ele>
        <time>2015-12-08T15:22:56Z</time>
      </trkpt>
      <trkpt lat="47.33171" lon="4.9872">
        <ele>246.1</ele>
        <time>2015-12-08T15:23:03Z</time>
      </trkpt>
      <trkpt lat="47.33168" lon="4.98734">
        <ele>246</ele>
        <time>2015-12-08T15:23:11Z</time>
      </trkpt>
      <trkpt lat="47.33165" lon="4.98749">
        <ele>246</ele>
        <time>2015-12-08T15:23:19Z</time>
      </trkpt>
      <trkpt lat="47.33162" lon="4.98762">
        <ele>246.5</ele>
        <time>2015-12-08T15:23:25Z</time>
      </trkpt>
      <trkpt lat="47.3316" lon="4.98776">
        <ele>247.1</ele>
        <time>2015-12-08T15:23:33Z</time>
      </trkpt>
      <trkpt lat="47.33159" lon="4.98791">
        <ele>247.7</ele>
        <time>2015-12-08T15:23:41Z</time>
      </trkpt>
      <trkpt lat="47.33153" lon="4.98809">
        <ele>248.4</ele>
        <time>2015-12-08T15:23:51Z</time>
      </trkpt>
      <trkpt lat="47.3315" lon="4.98823">
        <ele>249</ele>
        <time>2015-12-08T15:23:57Z</time>
      </trkpt>
      <trkpt lat="47.33148" lon="4.98837">
        <ele>249.6</ele>
        <time>2015-12-08T15:24:04Z</time>
      </trkpt>
      <trkpt lat="47.33144" lon="4.9885">
        <ele>250.6</ele>
        <time>2015-12-08T15:24:13Z</time>
      </trkpt>
      <trkpt lat="47.33139" lon="4.98861">
        <ele>251.1</ele>
        <time>2015-12-08T15:24:21Z</time>
      </trkpt>
      <trkpt lat="47.33133" lon="4.98873">
        <ele>251.6</ele>
        <time>2015-12-08T15:24:28Z</time>
      </trkpt>
      <trkpt lat="47.33128" lon="4.98885">
        <ele>252.1</ele>
        <time>2015-12-08T15:24:33Z</time>
      </trkpt>
      <trkpt lat="47.33124" lon="4.98896">
        <ele>252.5</ele>
        <time>2015-12-08T15:24:40Z</time>
      </trkpt>
      <trkpt lat="47.33119" lon="4.98909">
        <ele>253</ele>
        <time>2015-12-08T15:24:49Z</time>
      </trkpt>
      <trkpt lat="47.33117" lon="4.98923">
        <ele>253.3</ele>
        <time>2015-12-08T15:24:57Z</time>
      </trkpt>
      <trkpt lat="47.33116" lon="4.98937">
        <ele>253.1</ele>
        <time>2015-12-08T15:25:06Z</time>
      </trkpt>
      <trkpt lat="47.33114" lon="4.98951">
        <ele>252.8</ele>
        <time>2015-12-08T15:25:14Z</time>
      </trkpt>
      <trkpt lat="47.33112" lon="4.98966">
        <ele>252.5</ele>
        <time>2015-12-08T15:25:20Z</time>
      </trkpt>
      <trkpt lat="47.33111" lon="4.98979">
        <ele>252.4</ele>
        <time>2015-12-08T15:25:28Z</time>
      </trkpt>
      <trkpt lat="47.33109" lon="4.98993">
        <ele>252.1</ele>
        <time>2015-12-08T15:25:36Z</time>
      </trkpt>
      <trkpt lat="47.33105" lon="4.99006">
        <ele>251.8</ele>
        <time>2015-12-08T15:25:42Z</time>
      </trkpt>
      <trkpt lat="47.33099" lon="4.99017">
        <ele>251.7</ele>
        <time>2015-12-08T15:25:48Z</time>
      </trkpt>
      <trkpt lat="47.33093" lon="4.99029">
        <ele>251.5</ele>
        <time>2015-12-08T15:25:55Z</time>
      </trkpt>
      <trkpt lat="47.33088" lon="4.99041">
        <ele>251.6</ele>
        <time>2015-12-08T15:26:02Z</time>
      </trkpt>
      <trkpt lat="47.33084" lon="4.99053">
        <ele>251.6</ele>
        <time>2015-12-08T15:26:09Z</time>
      </trkpt>
      <trkpt lat="47.3308" lon="4.99067">
        <ele>251.9</ele>
        <time>2015-12-08T15:26:16Z</time>
      </trkpt>
      <trkpt lat="47.33077" lon="4.9908">
        <ele>252.2</ele>
        <time>2015-12-08T15:26:23Z</time>
      </trkpt>
      <trkpt lat="47.33074" lon="4.99092">
        <ele>252.2</ele>
        <time>2015-12-08T15:26:30Z</time>
      </trkpt>
      <trkpt lat="47.33072" lon="4.99107">
        <ele>252.4</ele>
        <time>2015-12-08T15:26:39Z</time>
      </trkpt>
      <trkpt lat="47.33072" lon="4.99121">
        <ele>252.7</ele>
        <time>2015-12-08T15:26:48Z</time>
      </trkpt>
      <trkpt lat="47.33069" lon="4.99136">
        <ele>252.8</ele>
        <time>2015-12-08T15:26:56Z</time>
      </trkpt>
      <trkpt lat="47.33062" lon="4.99146">
        <ele>252.4</ele>
        <time>2015-12-08T15:27:04Z</time>
      </trkpt>
      <trkpt lat="47.33056" lon="4.99156">
        <ele>252.1</ele>
        <time>2015-12-08T15:27:12Z</time>
      </trkpt>
      <trkpt lat="47.33051" lon="4.99169">
        <ele>252</ele>
        <time>2015-12-08T15:27:20Z</time>
      </trkpt>
      <trkpt lat="47.33048" lon="4.99181">
        <ele>251.9</ele>
        <time>2015-12-08T15:27:28Z</time>
      </trkpt>
      <trkpt lat="47.33046" lon="4.99196">
        <ele>252.1</ele>
        <time>2015-12-08T15:27:37Z</time>
      </trkpt>
      <trkpt lat="47.33045" lon="4.99209">
        <ele>252.3</ele>
        <time>2015-12-08T15:27:45Z</time>
      </trkpt>
      <trkpt lat="47.33044" lon="4.99223">
        <ele>252.5</ele>
        <time>2015-12-08T15:27:53Z</time>
      </trkpt>
      <trkpt lat="47.33043" lon="4.99238">
        <ele>252.8</ele>
        <time>2015-12-08T15:28:02Z</time>
      </trkpt>
      <trkpt lat="47.33043" lon="4.99252">
        <ele>253.1</ele>
        <time>2015-12-08T15:28:10Z</time>
      </trkpt>
      <trkpt lat="47.33043" lon="4.99265">
        <ele>253.2</ele>
        <time>2015-12-08T15:28:18Z</time>
      </trkpt>
      <trkpt lat="47.33044" lon="4.9928">
        <ele>253.5</ele>
        <time>2015-12-08T15:28:28Z</time>
      </trkpt>
      <trkpt lat="47.33044" lon="4.99295">
        <ele>253.7</ele>
        <time>2015-12-08T15:28:37Z</time>
      </trkpt>
      <trkpt lat="47.33043" lon="4.99309">
        <ele>253.8</ele>
        <time>2015-12-08T15:28:45Z</time>
      </trkpt>
      <trkpt lat="47.33039" lon="4.99323">
        <ele>253.6</ele>
        <time>2015-12-08T15:28:53Z</time>
      </trkpt>
      <trkpt lat="47.33033" lon="4.99334">
        <ele>253.2</ele>
        <time>2015-12-08T15:29:00Z</time>
      </trkpt>
      <trkpt lat="47.33028" lon="4.99346">
        <ele>252.8</ele>
        <time>2015-12-08T15:29:07Z</time>
      </trkpt>
      <trkpt lat="47.33025" lon="4.99359">
        <ele>252.7</ele>
        <time>2015-12-08T15:29:14Z</time>
      </trkpt>
      <trkpt lat="47.33026" lon="4.99373">
        <ele>253</ele>
        <time>2015-12-08T15:29:22Z</time>
      </trkpt>
      <trkpt lat="47.33031" lon="4.99385">
        <ele>253.5</ele>
        <time>2015-12-08T15:29:30Z</time>
      </trkpt>
      <trkpt lat="47.33033" lon="4.99398">
        <ele>253.8</ele>
        <time>2015-12-08T15:29:38Z</time>
      </trkpt>
      <trkpt lat="47.33036" lon="4.99413">
        <ele>254.1</ele>
        <time>2015-12-08T15:29:47Z</time>
      </trkpt>
      <trkpt lat="47.33037" lon="4.99427">
        <ele>254.9</ele>
        <time>2015-12-08T15:29:55Z</time>
      </trkpt>
      <trkpt lat="47.33038" lon="4.9944">
        <ele>255.9</ele>
        <time>2015-12-08T15:30:03Z</time>
      </trkpt>
      <trkpt lat="47.33038" lon="4.99454">
        <ele>256.8</ele>
        <time>2015-12-08T15:30:12Z</time>
      </trkpt>
      <trkpt lat="47.33037" lon="4.99468">
        <ele>257.7</ele>
        <time>2015-12-08T15:30:21Z</time>
      </trkpt>
      <trkpt lat="47.33033" lon="4.99481">
        <ele>258.3</ele>
        <time>2015-12-08T15:30:29Z</time>
      </trkpt>
      <trkpt lat="47.33029" lon="4.99494">
        <ele>258.7</ele>
        <time>2015-12-08T15:30:37Z</time>
      </trkpt>
      <trkpt lat="47.33025" lon="4.99506">
        <ele>259.1</ele>
        <time>2015-12-08T15:30:43Z</time>
      </trkpt>
      <trkpt lat="47.3302" lon="4.99519">
        <ele>259.4</ele>
        <time>2015-12-08T15:30:50Z</time>
      </trkpt>
      <trkpt lat="47.33015" lon="4.9953">
        <ele>259.4</ele>
        <time>2015-12-08T15:30:56Z</time>
      </trkpt>
      <trkpt lat="47.3301" lon="4.99542">
        <ele>259.3</ele>
        <time>2015-12-08T15:31:02Z</time>
      </trkpt>
      <trkpt lat="47.33004" lon="4.99554">
        <ele>258.7</ele>
        <time>2015-12-08T15:31:10Z</time>
      </trkpt>
      <trkpt lat="47.32999" lon="4.99565">
        <ele>258.2</ele>
        <time>2015-12-08T15:31:17Z</time>
      </trkpt>
      <trkpt lat="47.32994" lon="4.99577">
        <ele>258.1</ele>
        <time>2015-12-08T15:31:24Z</time>
      </trkpt>
      <trkpt lat="47.3299" lon="4.99589">
        <ele>258.1</ele>
        <time>2015-12-08T15:31:31Z</time>
      </trkpt>
      <trkpt lat="47.32985" lon="4.99602">
        <ele>258.3</ele>
        <time>2015-12-08T15:31:39Z</time>
      </trkpt>
      <trkpt lat="47.3298" lon="4.99615">
        <ele>258.3</ele>
        <time>2015-12-08T15:31:47Z</time>
      </trkpt>
      <trkpt lat="47.32975" lon="4.99626">
        <ele>258.2</ele>
        <time>2015-12-08T15:31:55Z</time>
      </trkpt>
      <trkpt lat="47.32971" lon="4.99638">
        <ele>258</ele>
        <time>2015-12-08T15:32:03Z</time>
      </trkpt>
      <trkpt lat="47.32966" lon="4.9965">
        <ele>257.8</ele>
        <time>2015-12-08T15:32:13Z</time>
      </trkpt>
      <trkpt lat="47.32963" lon="4.99663">
        <ele>257.8</ele>
        <time>2015-12-08T15:32:21Z</time>
      </trkpt>
      <trkpt lat="47.32963" lon="4.99678">
        <ele>258.2</ele>
        <time>2015-12-08T15:32:29Z</time>
      </trkpt>
      <trkpt lat="47.32963" lon="4.99692">
        <ele>258.6</ele>
        <time>2015-12-08T15:32:36Z</time>
      </trkpt>
      <trkpt lat="47.32962" lon="4.99707">
        <ele>258.9</ele>
        <time>2015-12-08T15:32:44Z</time>
      </trkpt>
      <trkpt lat="47.32962" lon="4.9972">
        <ele>259.3</ele>
        <time>2015-12-08T15:32:52Z</time>
      </trkpt>
      <trkpt lat="47.3296" lon="4.99735">
        <ele>259.3</ele>
        <time>2015-12-08T15:32:59Z</time>
      </trkpt>
      <trkpt lat="47.32959" lon="4.99749">
        <ele>259.6</ele>
        <time>2015-12-08T15:33:06Z</time>
      </trkpt>
      <trkpt lat="47.32957" lon="4.99763">
        <ele>259.5</ele>
        <time>2015-12-08T15:33:13Z</time>
      </trkpt>
      <trkpt lat="47.32956" lon="4.99778">
        <ele>259.7</ele>
        <time>2015-12-08T15:33:21Z</time>
      </trkpt>
      <trkpt lat="47.32953" lon="4.99793">
        <ele>259.3</ele>
        <time>2015-12-08T15:33:29Z</time>
      </trkpt>
      <trkpt lat="47.32956" lon="4.99807">
        <ele>260.3</ele>
        <time>2015-12-08T15:33:37Z</time>
      </trkpt>
      <trkpt lat="47.3296" lon="4.9982">
        <ele>261.6</ele>
        <time>2015-12-08T15:33:44Z</time>
      </trkpt>
      <trkpt lat="47.32965" lon="4.99833">
        <ele>263.1</ele>
        <time>2015-12-08T15:33:52Z</time>
      </trkpt>
      <trkpt lat="47.32966" lon="4.99848">
        <ele>263</ele>
        <time>2015-12-08T15:33:59Z</time>
      </trkpt>
      <trkpt lat="47.32968" lon="4.99863">
        <ele>263</ele>
        <time>2015-12-08T15:34:06Z</time>
      </trkpt>
      <trkpt lat="47.32967" lon="4.99877">
        <ele>262.4</ele>
        <time>2015-12-08T15:34:13Z</time>
      </trkpt>
      <trkpt lat="47.32967" lon="4.99891">
        <ele>262</ele>
        <time>2015-12-08T15:34:21Z</time>
      </trkpt>
      <trkpt lat="47.32965" lon="4.99906">
        <ele>261</ele>
        <time>2015-12-08T15:34:28Z</time>
      </trkpt>
      <trkpt lat="47.32962" lon="4.99919">
        <ele>260.2</ele>
        <time>2015-12-08T15:34:35Z</time>
      </trkpt>
      <trkpt lat="47.32959" lon="4.99932">
        <ele>260.2</ele>
        <time>2015-12-08T15:34:42Z</time>
      </trkpt>
      <trkpt lat="47.32955" lon="4.99946">
        <ele>260.1</ele>
        <time>2015-12-08T15:34:49Z</time>
      </trkpt>
      <trkpt lat="47.32951" lon="4.99959">
        <ele>260.1</ele>
        <time>2015-12-08T15:34:56Z</time>
      </trkpt>
      <trkpt lat="47.32947" lon="4.99971">
        <ele>259.7</ele>
        <time>2015-12-08T15:35:02Z</time>
      </trkpt>
      <trkpt lat="47.32944" lon="4.99984">
        <ele>259.9</ele>
        <time>2015-12-08T15:35:10Z</time>
      </trkpt>
      <trkpt lat="47.3294" lon="4.99997">
        <ele>259.8</ele>
        <time>2015-12-08T15:35:18Z</time>
      </trkpt>
      <trkpt lat="47.32935" lon="5.00008">
        <ele>260</ele>
        <time>2015-12-08T15:35:26Z</time>
      </trkpt>
      <trkpt lat="47.32927" lon="5.00016">
        <ele>259.7</ele>
        <time>2015-12-08T15:35:34Z</time>
      </trkpt>
      <trkpt lat="47.3292" lon="5.00026">
        <ele>259.3</ele>
        <time>2015-12-08T15:35:41Z</time>
      </trkpt>
      <trkpt lat="47.32914" lon="5.00037">
        <ele>259.4</ele>
        <time>2015-12-08T15:35:50Z</time>
      </trkpt>
      <trkpt lat="47.32908" lon="5.00049">
        <ele>259.4</ele>
        <time>2015-12-08T15:35:59Z</time>
      </trkpt>
      <trkpt lat="47.32905" lon="5.00062">
        <ele>260</ele>
        <time>2015-12-08T15:36:09Z</time>
      </trkpt>
      <trkpt lat="47.32901" lon="5.00075">
        <ele>260.3</ele>
        <time>2015-12-08T15:36:23Z</time>
      </trkpt>
      <trkpt lat="47.32896" lon="5.00088">
        <ele>260.2</ele>
        <time>2015-12-08T15:36:31Z</time>
      </trkpt>
      <trkpt lat="47.3289" lon="5.00099">
        <ele>259.6</ele>
        <time>2015-12-08T15:36:36Z</time>
      </trkpt>
      <trkpt lat="47.32884" lon="5.0011">
        <ele>258.9</ele>
        <time>2015-12-08T15:36:41Z</time>
      </trkpt>
      <trkpt lat="47.32878" lon="5.00121">
        <ele>258.3</ele>
        <time>2015-12-08T15:36:47Z</time>
      </trkpt>
      <trkpt lat="47.32872" lon="5.00132">
        <ele>257.4</ele>
        <time>2015-12-08T15:36:53Z</time>
      </trkpt>
      <trkpt lat="47.32867" lon="5.00146">
        <ele>257</ele>
        <time>2015-12-08T15:36:59Z</time>
      </trkpt>
      <trkpt lat="47.3286" lon="5.00157">
        <ele>256</ele>
        <time>2015-12-08T15:37:05Z</time>
      </trkpt>
      <trkpt lat="47.32855" lon="5.0017">
        <ele>255.6</ele>
        <time>2015-12-08T15:37:13Z</time>
      </trkpt>
      <trkpt lat="47.3285" lon="5.00182">
        <ele>255.7</ele>
        <time>2015-12-08T15:37:24Z</time>
      </trkpt>
      <trkpt lat="47.32844" lon="5.00194">
        <ele>255.4</ele>
        <time>2015-12-08T15:37:33Z</time>
      </trkpt>
      <trkpt lat="47.3284" lon="5.00206">
        <ele>255.7</ele>
        <time>2015-12-08T15:37:42Z</time>
      </trkpt>
      <trkpt lat="47.32834" lon="5.00217">
        <ele>255.4</ele>
        <time>2015-12-08T15:37:49Z</time>
      </trkpt>
      <trkpt lat="47.32828" lon="5.00228">
        <ele>255.4</ele>
        <time>2015-12-08T15:37:55Z</time>
      </trkpt>
      <trkpt lat="47.32823" lon="5.0024">
        <ele>255.9</ele>
        <time>2015-12-08T15:38:02Z</time>
      </trkpt>
      <trkpt lat="47.32818" lon="5.00252">
        <ele>256.2</ele>
        <time>2015-12-08T15:38:08Z</time>
      </trkpt>
      <trkpt lat="47.32814" lon="5.00264">
        <ele>256.9</ele>
        <time>2015-12-08T15:38:16Z</time>
      </trkpt>
      <trkpt lat="47.32809" lon="5.00276">
        <ele>257.6</ele>
        <time>2015-12-08T15:38:23Z</time>
      </trkpt>
      <trkpt lat="47.32805" lon="5.00289">
        <ele>257.8</ele>
        <time>2015-12-08T15:38:30Z</time>
      </trkpt>
      <trkpt lat="47.32801" lon="5.00302">
        <ele>258.5</ele>
        <time>2015-12-08T15:38:36Z</time>
      </trkpt>
      <trkpt lat="47.32797" lon="5.00315">
        <ele>259</ele>
        <time>2015-12-08T15:38:44Z</time>
      </trkpt>
      <trkpt lat="47.32793" lon="5.00328">
        <ele>259.3</ele>
        <time>2015-12-08T15:38:54Z</time>
      </trkpt>
      <trkpt lat="47.32788" lon="5.0034">
        <ele>258.5</ele>
        <time>2015-12-08T15:39:03Z</time>
      </trkpt>
      <trkpt lat="47.32782" lon="5.00352">
        <ele>257.1</ele>
        <time>2015-12-08T15:39:09Z</time>
      </trkpt>
      <trkpt lat="47.32777" lon="5.00365">
        <ele>256</ele>
        <time>2015-12-08T15:39:16Z</time>
      </trkpt>
      <trkpt lat="47.32772" lon="5.00376">
        <ele>255</ele>
        <time>2015-12-08T15:39:25Z</time>
      </trkpt>
      <trkpt lat="47.32766" lon="5.00388">
        <ele>254</ele>
        <time>2015-12-08T15:39:30Z</time>
      </trkpt>
      <trkpt lat="47.32761" lon="5.004">
        <ele>253.4</ele>
        <time>2015-12-08T15:39:37Z</time>
      </trkpt>
      <trkpt lat="47.32755" lon="5.0041">
        <ele>252.5</ele>
        <time>2015-12-08T15:39:43Z</time>
      </trkpt>
      <trkpt lat="47.32749" lon="5.00423">
        <ele>252.9</ele>
        <time>2015-12-08T15:39:50Z</time>
      </trkpt>
      <trkpt lat="47.32745" lon="5.00435">
        <ele>254.8</ele>
        <time>2015-12-08T15:39:58Z</time>
      </trkpt>
      <trkpt lat="47.32742" lon="5.00448">
        <ele>256.9</ele>
        <time>2015-12-08T15:40:06Z</time>
      </trkpt>
      <trkpt lat="47.32738" lon="5.0046">
        <ele>258.4</ele>
        <time>2015-12-08T15:40:14Z</time>
      </trkpt>
      <trkpt lat="47.32733" lon="5.00472">
        <ele>259.6</ele>
        <time>2015-12-08T15:40:21Z</time>
      </trkpt>
      <trkpt lat="47.32728" lon="5.00484">
        <ele>260.5</ele>
        <time>2015-12-08T15:40:29Z</time>
      </trkpt>
      <trkpt lat="47.32723" lon="5.00496">
        <ele>261.2</ele>
        <time>2015-12-08T15:40:36Z</time>
      </trkpt>
      <trkpt lat="47.32718" lon="5.00508">
        <ele>262.1</ele>
        <time>2015-12-08T15:40:44Z</time>
      </trkpt>
      <trkpt lat="47.32714" lon="5.00521">
        <ele>263.2</ele>
        <time>2015-12-08T15:40:52Z</time>
      </trkpt>
      <trkpt lat="47.32711" lon="5.00534">
        <ele>264.7</ele>
        <time>2015-12-08T15:41:00Z</time>
      </trkpt>
      <trkpt lat="47.32705" lon="5.00545">
        <ele>264.9</ele>
        <time>2015-12-08T15:41:07Z</time>
      </trkpt>
      <trkpt lat="47.32703" lon="5.00559">
        <ele>266.3</ele>
        <time>2015-12-08T15:41:15Z</time>
      </trkpt>
      <trkpt lat="47.32702" lon="5.00573">
        <ele>268</ele>
        <time>2015-12-08T15:41:23Z</time>
      </trkpt>
      <trkpt lat="47.32698" lon="5.00585">
        <ele>268.2</ele>
        <time>2015-12-08T15:41:31Z</time>
      </trkpt>
      <trkpt lat="47.32691" lon="5.00595">
        <ele>267.5</ele>
        <time>2015-12-08T15:41:38Z</time>
      </trkpt>
      <trkpt lat="47.32685" lon="5.00607">
        <ele>267.1</ele>
        <time>2015-12-08T15:41:45Z</time>
      </trkpt>
      <trkpt lat="47.32678" lon="5.00617">
        <ele>266.5</ele>
        <time>2015-12-08T15:41:53Z</time>
      </trkpt>
      <trkpt lat="47.32671" lon="5.00626">
        <ele>265.6</ele>
        <time>2015-12-08T15:42:00Z</time>
      </trkpt>
      <trkpt lat="47.32663" lon="5.00631">
        <ele>264.6</ele>
        <time>2015-12-08T15:42:10Z</time>
      </trkpt>
      <trkpt lat="47.32655" lon="5.00638">
        <ele>264</ele>
        <time>2015-12-08T15:42:16Z</time>
      </trkpt>
      <trkpt lat="47.32646" lon="5.00644">
        <ele>263.3</ele>
        <time>2015-12-08T15:42:23Z</time>
      </trkpt>
      <trkpt lat="47.32638" lon="5.00652">
        <ele>262.9</ele>
        <time>2015-12-08T15:42:30Z</time>
      </trkpt>
      <trkpt lat="47.32631" lon="5.00661">
        <ele>262.4</ele>
        <time>2015-12-08T15:42:37Z</time>
      </trkpt>
      <trkpt lat="47.32622" lon="5.00668">
        <ele>261.4</ele>
        <time>2015-12-08T15:42:44Z</time>
      </trkpt>
      <trkpt lat="47.32614" lon="5.00673">
        <ele>260.3</ele>
        <time>2015-12-08T15:42:52Z</time>
      </trkpt>
      <trkpt lat="47.32604" lon="5.00677">
        <ele>258.7</ele>
        <time>2015-12-08T15:43:01Z</time>
      </trkpt>
      <trkpt lat="47.32594" lon="5.0068">
        <ele>257.3</ele>
        <time>2015-12-08T15:43:10Z</time>
      </trkpt>
      <trkpt lat="47.32586" lon="5.00687">
        <ele>256.5</ele>
        <time>2015-12-08T15:43:17Z</time>
      </trkpt>
      <trkpt lat="47.32577" lon="5.00693">
        <ele>256</ele>
        <time>2015-12-08T15:43:25Z</time>
      </trkpt>
      <trkpt lat="47.32568" lon="5.00701">
        <ele>255.8</ele>
        <time>2015-12-08T15:43:32Z</time>
      </trkpt>
      <trkpt lat="47.32559" lon="5.00706">
        <ele>254.8</ele>
        <time>2015-12-08T15:43:39Z</time>
      </trkpt>
      <trkpt lat="47.3255" lon="5.00712">
        <ele>254</ele>
        <time>2015-12-08T15:43:46Z</time>
      </trkpt>
      <trkpt lat="47.32542" lon="5.00718">
        <ele>253.4</ele>
        <time>2015-12-08T15:43:53Z</time>
      </trkpt>
      <trkpt lat="47.32533" lon="5.00726">
        <ele>252.8</ele>
        <time>2015-12-08T15:44:01Z</time>
      </trkpt>
      <trkpt lat="47.32526" lon="5.00735">
        <ele>252.6</ele>
        <time>2015-12-08T15:44:09Z</time>
      </trkpt>
      <trkpt lat="47.32519" lon="5.00744">
        <ele>252.3</ele>
        <time>2015-12-08T15:44:17Z</time>
      </trkpt>
      <trkpt lat="47.32512" lon="5.00754">
        <ele>251.6</ele>
        <time>2015-12-08T15:44:26Z</time>
      </trkpt>
      <trkpt lat="47.32505" lon="5.00763">
        <ele>250.4</ele>
        <time>2015-12-08T15:44:34Z</time>
      </trkpt>
      <trkpt lat="47.32497" lon="5.0077">
        <ele>249.3</ele>
        <time>2015-12-08T15:44:41Z</time>
      </trkpt>
      <trkpt lat="47.32487" lon="5.00773">
        <ele>248.7</ele>
        <time>2015-12-08T15:44:48Z</time>
      </trkpt>
      <trkpt lat="47.32479" lon="5.00778">
        <ele>248.4</ele>
        <time>2015-12-08T15:44:55Z</time>
      </trkpt>
      <trkpt lat="47.3247" lon="5.00778">
        <ele>247.8</ele>
        <time>2015-12-08T15:45:05Z</time>
      </trkpt>
      <trkpt lat="47.3246" lon="5.00777">
        <ele>247.2</ele>
        <time>2015-12-08T15:45:14Z</time>
      </trkpt>
      <trkpt lat="47.32457" lon="5.0079">
        <ele>247.6</ele>
        <time>2015-12-08T15:45:30Z</time>
      </trkpt>
      <trkpt lat="47.32462" lon="5.00802">
        <ele>248.3</ele>
        <time>2015-12-08T15:45:46Z</time>
      </trkpt>
      <trkpt lat="47.3246" lon="5.0081">
        <ele>248.6</ele>
        <time>2015-12-08T15:46:15Z</time>
      </trkpt>
    </trkseg>
  </trk>
</gpx>